<?xml version="1.0" encoding="UTF-8" standalone="no" ?>
<gpx xmlns="http://www.topografix.com/GPX/1/1" xmlns:xsi="http://www.w3.org/2001/XMLSchema-instance" xsi:schemaLocation="http://www.topografix.com/GPX/1/1 http://www.topografix.com/GPX/1/1/gpx.xsd" version="1.1" creator="VisuGPX - https://www.visugpx.com">
  <metadata>
    <name>Randonnée Vebre</name>
    <desc><![CDATA[Randonnée variée, avec visite possible du château de Lordat en été.]]></desc>
  </metadata>
  <trk>
    <name><![CDATA[Tracé actuel: 25 FEV 2017 14:14]]></name>
    <trkseg>
      <trkpt lat="42.77499" lon="1.71903">
        <ele>588.46</ele>
        <time>2017-02-25T13:14:41Z</time>
      </trkpt>
      <trkpt lat="42.77497" lon="1.71895">
        <ele>587.5</ele>
        <time>2017-02-25T13:14:47Z</time>
      </trkpt>
      <trkpt lat="42.77496" lon="1.71884">
        <ele>587.02</ele>
        <time>2017-02-25T13:14:56Z</time>
      </trkpt>
      <trkpt lat="42.77493" lon="1.71874">
        <ele>587.02</ele>
        <time>2017-02-25T13:15:04Z</time>
      </trkpt>
      <trkpt lat="42.77491" lon="1.71858">
        <ele>586.06</ele>
        <time>2017-02-25T13:15:18Z</time>
      </trkpt>
      <trkpt lat="42.77487" lon="1.71838">
        <ele>582.7</ele>
        <time>2017-02-25T13:15:34Z</time>
      </trkpt>
      <trkpt lat="42.77481" lon="1.71818">
        <ele>582.22</ele>
        <time>2017-02-25T13:15:51Z</time>
      </trkpt>
      <trkpt lat="42.77477" lon="1.7179">
        <ele>583.66</ele>
        <time>2017-02-25T13:16:12Z</time>
      </trkpt>
      <trkpt lat="42.77476" lon="1.71773">
        <ele>587.98</ele>
        <time>2017-02-25T13:16:27Z</time>
      </trkpt>
      <trkpt lat="42.77473" lon="1.71744">
        <ele>585.1</ele>
        <time>2017-02-25T13:16:42Z</time>
      </trkpt>
      <trkpt lat="42.77473" lon="1.71725">
        <ele>581.25</ele>
        <time>2017-02-25T13:16:57Z</time>
      </trkpt>
      <trkpt lat="42.77476" lon="1.71701">
        <ele>579.33</ele>
        <time>2017-02-25T13:17:14Z</time>
      </trkpt>
      <trkpt lat="42.77478" lon="1.71679">
        <ele>579.81</ele>
        <time>2017-02-25T13:17:28Z</time>
      </trkpt>
      <trkpt lat="42.7748" lon="1.71657">
        <ele>578.37</ele>
        <time>2017-02-25T13:17:45Z</time>
      </trkpt>
      <trkpt lat="42.77486" lon="1.71632">
        <ele>576.45</ele>
        <time>2017-02-25T13:18:02Z</time>
      </trkpt>
      <trkpt lat="42.7749" lon="1.71607">
        <ele>577.41</ele>
        <time>2017-02-25T13:18:19Z</time>
      </trkpt>
      <trkpt lat="42.7749" lon="1.71581">
        <ele>577.41</ele>
        <time>2017-02-25T13:18:36Z</time>
      </trkpt>
      <trkpt lat="42.77493" lon="1.71562">
        <ele>575.97</ele>
        <time>2017-02-25T13:18:50Z</time>
      </trkpt>
      <trkpt lat="42.77488" lon="1.71542">
        <ele>575.49</ele>
        <time>2017-02-25T13:19:05Z</time>
      </trkpt>
      <trkpt lat="42.77483" lon="1.71521">
        <ele>575.49</ele>
        <time>2017-02-25T13:19:21Z</time>
      </trkpt>
      <trkpt lat="42.77483" lon="1.7152">
        <ele>575.49</ele>
        <time>2017-02-25T13:19:22Z</time>
      </trkpt>
      <trkpt lat="42.77481" lon="1.71502">
        <ele>575.01</ele>
        <time>2017-02-25T13:19:36Z</time>
      </trkpt>
      <trkpt lat="42.77482" lon="1.71482">
        <ele>572.6</ele>
        <time>2017-02-25T13:19:52Z</time>
      </trkpt>
      <trkpt lat="42.77482" lon="1.71465">
        <ele>571.16</ele>
        <time>2017-02-25T13:20:05Z</time>
      </trkpt>
      <trkpt lat="42.77481" lon="1.71445">
        <ele>569.24</ele>
        <time>2017-02-25T13:20:20Z</time>
      </trkpt>
      <trkpt lat="42.77481" lon="1.71427">
        <ele>570.2</ele>
        <time>2017-02-25T13:20:33Z</time>
      </trkpt>
      <trkpt lat="42.77479" lon="1.71406">
        <ele>566.83</ele>
        <time>2017-02-25T13:20:50Z</time>
      </trkpt>
      <trkpt lat="42.77479" lon="1.71394">
        <ele>564.43</ele>
        <time>2017-02-25T13:20:59Z</time>
      </trkpt>
      <trkpt lat="42.77474" lon="1.7137">
        <ele>561.07</ele>
        <time>2017-02-25T13:21:17Z</time>
      </trkpt>
      <trkpt lat="42.77473" lon="1.71362">
        <ele>559.62</ele>
        <time>2017-02-25T13:21:24Z</time>
      </trkpt>
      <trkpt lat="42.77472" lon="1.71359">
        <ele>559.62</ele>
        <time>2017-02-25T13:21:26Z</time>
      </trkpt>
      <trkpt lat="42.77469" lon="1.71333">
        <ele>559.14</ele>
        <time>2017-02-25T13:21:45Z</time>
      </trkpt>
      <trkpt lat="42.77469" lon="1.71315">
        <ele>555.78</ele>
        <time>2017-02-25T13:22:00Z</time>
      </trkpt>
      <trkpt lat="42.77472" lon="1.71303">
        <ele>554.82</ele>
        <time>2017-02-25T13:22:11Z</time>
      </trkpt>
      <trkpt lat="42.77469" lon="1.71285">
        <ele>552.41</ele>
        <time>2017-02-25T13:22:25Z</time>
      </trkpt>
      <trkpt lat="42.77466" lon="1.71269">
        <ele>552.41</ele>
        <time>2017-02-25T13:22:39Z</time>
      </trkpt>
      <trkpt lat="42.77462" lon="1.71251">
        <ele>552.9</ele>
        <time>2017-02-25T13:22:53Z</time>
      </trkpt>
      <trkpt lat="42.77457" lon="1.71231">
        <ele>551.45</ele>
        <time>2017-02-25T13:23:09Z</time>
      </trkpt>
      <trkpt lat="42.77454" lon="1.71219">
        <ele>550.01</ele>
        <time>2017-02-25T13:23:20Z</time>
      </trkpt>
      <trkpt lat="42.7745" lon="1.71197">
        <ele>548.57</ele>
        <time>2017-02-25T13:23:37Z</time>
      </trkpt>
      <trkpt lat="42.7745" lon="1.71189">
        <ele>547.61</ele>
        <time>2017-02-25T13:23:43Z</time>
      </trkpt>
      <trkpt lat="42.77453" lon="1.71169">
        <ele>544.24</ele>
        <time>2017-02-25T13:23:59Z</time>
      </trkpt>
      <trkpt lat="42.77456" lon="1.71151">
        <ele>541.84</ele>
        <time>2017-02-25T13:24:13Z</time>
      </trkpt>
      <trkpt lat="42.77458" lon="1.71128">
        <ele>540.4</ele>
        <time>2017-02-25T13:24:30Z</time>
      </trkpt>
      <trkpt lat="42.77458" lon="1.71116">
        <ele>539.44</ele>
        <time>2017-02-25T13:24:39Z</time>
      </trkpt>
      <trkpt lat="42.77454" lon="1.71095">
        <ele>539.44</ele>
        <time>2017-02-25T13:24:55Z</time>
      </trkpt>
      <trkpt lat="42.77448" lon="1.71076">
        <ele>538.96</ele>
        <time>2017-02-25T13:25:11Z</time>
      </trkpt>
      <trkpt lat="42.77441" lon="1.71054">
        <ele>540.4</ele>
        <time>2017-02-25T13:25:26Z</time>
      </trkpt>
      <trkpt lat="42.7744" lon="1.71034">
        <ele>539.44</ele>
        <time>2017-02-25T13:25:41Z</time>
      </trkpt>
      <trkpt lat="42.7744" lon="1.71012">
        <ele>538.48</ele>
        <time>2017-02-25T13:25:56Z</time>
      </trkpt>
      <trkpt lat="42.77441" lon="1.70999">
        <ele>537.51</ele>
        <time>2017-02-25T13:26:05Z</time>
      </trkpt>
      <trkpt lat="42.7744" lon="1.70977">
        <ele>536.55</ele>
        <time>2017-02-25T13:26:21Z</time>
      </trkpt>
      <trkpt lat="42.7744" lon="1.70975">
        <ele>536.55</ele>
        <time>2017-02-25T13:26:22Z</time>
      </trkpt>
      <trkpt lat="42.77437" lon="1.7096">
        <ele>536.55</ele>
        <time>2017-02-25T13:26:33Z</time>
      </trkpt>
      <trkpt lat="42.77439" lon="1.70932">
        <ele>536.55</ele>
        <time>2017-02-25T13:26:52Z</time>
      </trkpt>
      <trkpt lat="42.7743" lon="1.7092">
        <ele>536.55</ele>
        <time>2017-02-25T13:27:06Z</time>
      </trkpt>
      <trkpt lat="42.77425" lon="1.70913">
        <ele>536.55</ele>
        <time>2017-02-25T13:27:16Z</time>
      </trkpt>
      <trkpt lat="42.77423" lon="1.70906">
        <ele>537.03</ele>
        <time>2017-02-25T13:27:29Z</time>
      </trkpt>
      <trkpt lat="42.77425" lon="1.70887">
        <ele>539.44</ele>
        <time>2017-02-25T13:27:44Z</time>
      </trkpt>
      <trkpt lat="42.77424" lon="1.70878">
        <ele>538.96</ele>
        <time>2017-02-25T13:27:57Z</time>
      </trkpt>
      <trkpt lat="42.77424" lon="1.70877">
        <ele>539.44</ele>
        <time>2017-02-25T13:27:59Z</time>
      </trkpt>
      <trkpt lat="42.77424" lon="1.70869">
        <ele>539.92</ele>
        <time>2017-02-25T13:28:04Z</time>
      </trkpt>
      <trkpt lat="42.7743" lon="1.70857">
        <ele>539.92</ele>
        <time>2017-02-25T13:28:15Z</time>
      </trkpt>
      <trkpt lat="42.77433" lon="1.70848">
        <ele>539.92</ele>
        <time>2017-02-25T13:28:23Z</time>
      </trkpt>
      <trkpt lat="42.77435" lon="1.70833">
        <ele>537.99</ele>
        <time>2017-02-25T13:28:34Z</time>
      </trkpt>
      <trkpt lat="42.77436" lon="1.70813">
        <ele>536.07</ele>
        <time>2017-02-25T13:28:48Z</time>
      </trkpt>
      <trkpt lat="42.77438" lon="1.70797">
        <ele>530.79</ele>
        <time>2017-02-25T13:29:02Z</time>
      </trkpt>
      <trkpt lat="42.77436" lon="1.70779">
        <ele>528.38</ele>
        <time>2017-02-25T13:29:15Z</time>
      </trkpt>
      <trkpt lat="42.77437" lon="1.70759">
        <ele>526.46</ele>
        <time>2017-02-25T13:29:31Z</time>
      </trkpt>
      <trkpt lat="42.77438" lon="1.70734">
        <ele>525.02</ele>
        <time>2017-02-25T13:29:47Z</time>
      </trkpt>
      <trkpt lat="42.77436" lon="1.70719">
        <ele>531.75</ele>
        <time>2017-02-25T13:29:59Z</time>
      </trkpt>
      <trkpt lat="42.77436" lon="1.7071">
        <ele>535.11</ele>
        <time>2017-02-25T13:30:13Z</time>
      </trkpt>
      <trkpt lat="42.77438" lon="1.70695">
        <ele>540.88</ele>
        <time>2017-02-25T13:30:27Z</time>
      </trkpt>
      <trkpt lat="42.77441" lon="1.70675">
        <ele>544.24</ele>
        <time>2017-02-25T13:30:43Z</time>
      </trkpt>
      <trkpt lat="42.77444" lon="1.70658">
        <ele>544.72</ele>
        <time>2017-02-25T13:30:57Z</time>
      </trkpt>
      <trkpt lat="42.7745" lon="1.7064">
        <ele>544.24</ele>
        <time>2017-02-25T13:31:13Z</time>
      </trkpt>
      <trkpt lat="42.77453" lon="1.70627">
        <ele>545.2</ele>
        <time>2017-02-25T13:31:29Z</time>
      </trkpt>
      <trkpt lat="42.77453" lon="1.70626">
        <ele>545.2</ele>
        <time>2017-02-25T13:31:45Z</time>
      </trkpt>
      <trkpt lat="42.77457" lon="1.70612">
        <ele>545.2</ele>
        <time>2017-02-25T13:32:01Z</time>
      </trkpt>
      <trkpt lat="42.77462" lon="1.70592">
        <ele>546.17</ele>
        <time>2017-02-25T13:32:15Z</time>
      </trkpt>
      <trkpt lat="42.77466" lon="1.70578">
        <ele>546.65</ele>
        <time>2017-02-25T13:32:29Z</time>
      </trkpt>
      <trkpt lat="42.77471" lon="1.70562">
        <ele>545.69</ele>
        <time>2017-02-25T13:32:45Z</time>
      </trkpt>
      <trkpt lat="42.77478" lon="1.70551">
        <ele>544.72</ele>
        <time>2017-02-25T13:32:57Z</time>
      </trkpt>
      <trkpt lat="42.77485" lon="1.70539">
        <ele>544.72</ele>
        <time>2017-02-25T13:33:10Z</time>
      </trkpt>
      <trkpt lat="42.77494" lon="1.70525">
        <ele>545.69</ele>
        <time>2017-02-25T13:33:24Z</time>
      </trkpt>
      <trkpt lat="42.77504" lon="1.70509">
        <ele>545.2</ele>
        <time>2017-02-25T13:33:39Z</time>
      </trkpt>
      <trkpt lat="42.77505" lon="1.70504">
        <ele>545.69</ele>
        <time>2017-02-25T13:33:53Z</time>
      </trkpt>
      <trkpt lat="42.77507" lon="1.70501">
        <ele>549.05</ele>
        <time>2017-02-25T13:34:21Z</time>
      </trkpt>
      <trkpt lat="42.77506" lon="1.70503">
        <ele>549.53</ele>
        <time>2017-02-25T13:34:51Z</time>
      </trkpt>
      <trkpt lat="42.77512" lon="1.70493">
        <ele>548.57</ele>
        <time>2017-02-25T13:35:06Z</time>
      </trkpt>
      <trkpt lat="42.77521" lon="1.70478">
        <ele>548.09</ele>
        <time>2017-02-25T13:35:21Z</time>
      </trkpt>
      <trkpt lat="42.77532" lon="1.70462">
        <ele>546.17</ele>
        <time>2017-02-25T13:35:38Z</time>
      </trkpt>
      <trkpt lat="42.77542" lon="1.70444">
        <ele>547.61</ele>
        <time>2017-02-25T13:35:52Z</time>
      </trkpt>
      <trkpt lat="42.77548" lon="1.70432">
        <ele>547.61</ele>
        <time>2017-02-25T13:36:06Z</time>
      </trkpt>
      <trkpt lat="42.77551" lon="1.70424">
        <ele>548.09</ele>
        <time>2017-02-25T13:36:24Z</time>
      </trkpt>
      <trkpt lat="42.77562" lon="1.70409">
        <ele>550.97</ele>
        <time>2017-02-25T13:36:40Z</time>
      </trkpt>
      <trkpt lat="42.77567" lon="1.70403">
        <ele>551.45</ele>
        <time>2017-02-25T13:36:48Z</time>
      </trkpt>
      <trkpt lat="42.77578" lon="1.70382">
        <ele>550.01</ele>
        <time>2017-02-25T13:37:05Z</time>
      </trkpt>
      <trkpt lat="42.77581" lon="1.70366">
        <ele>549.05</ele>
        <time>2017-02-25T13:37:17Z</time>
      </trkpt>
      <trkpt lat="42.77593" lon="1.70353">
        <ele>549.05</ele>
        <time>2017-02-25T13:37:33Z</time>
      </trkpt>
      <trkpt lat="42.77605" lon="1.70336">
        <ele>552.41</ele>
        <time>2017-02-25T13:37:50Z</time>
      </trkpt>
      <trkpt lat="42.77613" lon="1.70321">
        <ele>553.86</ele>
        <time>2017-02-25T13:38:02Z</time>
      </trkpt>
      <trkpt lat="42.77616" lon="1.70299">
        <ele>555.78</ele>
        <time>2017-02-25T13:38:18Z</time>
      </trkpt>
      <trkpt lat="42.77617" lon="1.70296">
        <ele>556.26</ele>
        <time>2017-02-25T13:38:21Z</time>
      </trkpt>
      <trkpt lat="42.77616" lon="1.70291">
        <ele>556.26</ele>
        <time>2017-02-25T13:38:25Z</time>
      </trkpt>
      <trkpt lat="42.77617" lon="1.70286">
        <ele>555.78</ele>
        <time>2017-02-25T13:38:39Z</time>
      </trkpt>
      <trkpt lat="42.77615" lon="1.70286">
        <ele>555.78</ele>
        <time>2017-02-25T13:38:50Z</time>
      </trkpt>
      <trkpt lat="42.77617" lon="1.70284">
        <ele>555.78</ele>
        <time>2017-02-25T13:39:08Z</time>
      </trkpt>
      <trkpt lat="42.77617" lon="1.70283">
        <ele>555.3</ele>
        <time>2017-02-25T13:39:27Z</time>
      </trkpt>
      <trkpt lat="42.77616" lon="1.70286">
        <ele>555.3</ele>
        <time>2017-02-25T13:39:46Z</time>
      </trkpt>
      <trkpt lat="42.77615" lon="1.70285">
        <ele>555.3</ele>
        <time>2017-02-25T13:40:06Z</time>
      </trkpt>
      <trkpt lat="42.77615" lon="1.70284">
        <ele>554.34</ele>
        <time>2017-02-25T13:40:23Z</time>
      </trkpt>
      <trkpt lat="42.77615" lon="1.70283">
        <ele>554.34</ele>
        <time>2017-02-25T13:40:43Z</time>
      </trkpt>
      <trkpt lat="42.77617" lon="1.70282">
        <ele>553.86</ele>
        <time>2017-02-25T13:41:08Z</time>
      </trkpt>
      <trkpt lat="42.77617" lon="1.70283">
        <ele>554.82</ele>
        <time>2017-02-25T13:41:43Z</time>
      </trkpt>
      <trkpt lat="42.77616" lon="1.70283">
        <ele>555.3</ele>
        <time>2017-02-25T13:42:14Z</time>
      </trkpt>
      <trkpt lat="42.77617" lon="1.70282">
        <ele>555.3</ele>
        <time>2017-02-25T13:42:44Z</time>
      </trkpt>
      <trkpt lat="42.77617" lon="1.70283">
        <ele>555.3</ele>
        <time>2017-02-25T13:43:09Z</time>
      </trkpt>
      <trkpt lat="42.77616" lon="1.70283">
        <ele>554.82</ele>
        <time>2017-02-25T13:43:34Z</time>
      </trkpt>
      <trkpt lat="42.77616" lon="1.70283">
        <ele>554.34</ele>
        <time>2017-02-25T13:43:57Z</time>
      </trkpt>
      <trkpt lat="42.77616" lon="1.70283">
        <ele>553.86</ele>
        <time>2017-02-25T13:44:15Z</time>
      </trkpt>
      <trkpt lat="42.77621" lon="1.70279">
        <ele>551.93</ele>
        <time>2017-02-25T13:44:29Z</time>
      </trkpt>
      <trkpt lat="42.77629" lon="1.70277">
        <ele>552.41</ele>
        <time>2017-02-25T13:44:42Z</time>
      </trkpt>
      <trkpt lat="42.77638" lon="1.70277">
        <ele>554.34</ele>
        <time>2017-02-25T13:44:56Z</time>
      </trkpt>
      <trkpt lat="42.77644" lon="1.70279">
        <ele>554.82</ele>
        <time>2017-02-25T13:45:09Z</time>
      </trkpt>
      <trkpt lat="42.77648" lon="1.70282">
        <ele>553.38</ele>
        <time>2017-02-25T13:45:22Z</time>
      </trkpt>
      <trkpt lat="42.77652" lon="1.7028">
        <ele>553.86</ele>
        <time>2017-02-25T13:45:33Z</time>
      </trkpt>
      <trkpt lat="42.7766" lon="1.70285">
        <ele>554.82</ele>
        <time>2017-02-25T13:45:41Z</time>
      </trkpt>
      <trkpt lat="42.77668" lon="1.70286">
        <ele>555.78</ele>
        <time>2017-02-25T13:45:58Z</time>
      </trkpt>
      <trkpt lat="42.77675" lon="1.7028">
        <ele>558.18</ele>
        <time>2017-02-25T13:46:10Z</time>
      </trkpt>
      <trkpt lat="42.7768" lon="1.70274">
        <ele>559.62</ele>
        <time>2017-02-25T13:46:22Z</time>
      </trkpt>
      <trkpt lat="42.77681" lon="1.70274">
        <ele>560.59</ele>
        <time>2017-02-25T13:46:48Z</time>
      </trkpt>
      <trkpt lat="42.77684" lon="1.70273">
        <ele>562.03</ele>
        <time>2017-02-25T13:47:01Z</time>
      </trkpt>
      <trkpt lat="42.77695" lon="1.70273">
        <ele>563.47</ele>
        <time>2017-02-25T13:47:16Z</time>
      </trkpt>
      <trkpt lat="42.77706" lon="1.70271">
        <ele>563.95</ele>
        <time>2017-02-25T13:47:30Z</time>
      </trkpt>
      <trkpt lat="42.77717" lon="1.7027">
        <ele>566.83</ele>
        <time>2017-02-25T13:47:45Z</time>
      </trkpt>
      <trkpt lat="42.77721" lon="1.70267">
        <ele>567.8</ele>
        <time>2017-02-25T13:48:00Z</time>
      </trkpt>
      <trkpt lat="42.77719" lon="1.7026">
        <ele>567.8</ele>
        <time>2017-02-25T13:48:16Z</time>
      </trkpt>
      <trkpt lat="42.77718" lon="1.70257">
        <ele>568.28</ele>
        <time>2017-02-25T13:48:29Z</time>
      </trkpt>
      <trkpt lat="42.77722" lon="1.70254">
        <ele>567.8</ele>
        <time>2017-02-25T13:48:45Z</time>
      </trkpt>
      <trkpt lat="42.77723" lon="1.70251">
        <ele>568.28</ele>
        <time>2017-02-25T13:48:51Z</time>
      </trkpt>
      <trkpt lat="42.7773" lon="1.70241">
        <ele>568.28</ele>
        <time>2017-02-25T13:49:06Z</time>
      </trkpt>
      <trkpt lat="42.77737" lon="1.70242">
        <ele>568.76</ele>
        <time>2017-02-25T13:49:20Z</time>
      </trkpt>
      <trkpt lat="42.7775" lon="1.70236">
        <ele>570.2</ele>
        <time>2017-02-25T13:49:36Z</time>
      </trkpt>
      <trkpt lat="42.7776" lon="1.70226">
        <ele>570.68</ele>
        <time>2017-02-25T13:49:50Z</time>
      </trkpt>
      <trkpt lat="42.77766" lon="1.70219">
        <ele>571.16</ele>
        <time>2017-02-25T13:49:59Z</time>
      </trkpt>
      <trkpt lat="42.77769" lon="1.70215">
        <ele>571.16</ele>
        <time>2017-02-25T13:50:03Z</time>
      </trkpt>
      <trkpt lat="42.7777" lon="1.70214">
        <ele>571.64</ele>
        <time>2017-02-25T13:50:05Z</time>
      </trkpt>
      <trkpt lat="42.77772" lon="1.70213">
        <ele>571.64</ele>
        <time>2017-02-25T13:50:07Z</time>
      </trkpt>
      <trkpt lat="42.77781" lon="1.70206">
        <ele>572.6</ele>
        <time>2017-02-25T13:50:20Z</time>
      </trkpt>
      <trkpt lat="42.7779" lon="1.702">
        <ele>573.08</ele>
        <time>2017-02-25T13:50:32Z</time>
      </trkpt>
      <trkpt lat="42.77797" lon="1.70197">
        <ele>573.56</ele>
        <time>2017-02-25T13:50:45Z</time>
      </trkpt>
      <trkpt lat="42.77805" lon="1.70192">
        <ele>574.53</ele>
        <time>2017-02-25T13:50:58Z</time>
      </trkpt>
      <trkpt lat="42.7781" lon="1.70185">
        <ele>573.56</ele>
        <time>2017-02-25T13:51:06Z</time>
      </trkpt>
      <trkpt lat="42.77812" lon="1.70178">
        <ele>574.53</ele>
        <time>2017-02-25T13:51:12Z</time>
      </trkpt>
      <trkpt lat="42.7782" lon="1.70162">
        <ele>576.93</ele>
        <time>2017-02-25T13:51:27Z</time>
      </trkpt>
      <trkpt lat="42.77829" lon="1.70151">
        <ele>577.89</ele>
        <time>2017-02-25T13:51:41Z</time>
      </trkpt>
      <trkpt lat="42.7784" lon="1.70143">
        <ele>579.33</ele>
        <time>2017-02-25T13:51:55Z</time>
      </trkpt>
      <trkpt lat="42.77847" lon="1.70133">
        <ele>579.81</ele>
        <time>2017-02-25T13:52:08Z</time>
      </trkpt>
      <trkpt lat="42.77851" lon="1.70125">
        <ele>580.77</ele>
        <time>2017-02-25T13:52:21Z</time>
      </trkpt>
      <trkpt lat="42.77858" lon="1.70109">
        <ele>579.33</ele>
        <time>2017-02-25T13:52:36Z</time>
      </trkpt>
      <trkpt lat="42.77863" lon="1.70094">
        <ele>578.85</ele>
        <time>2017-02-25T13:52:47Z</time>
      </trkpt>
      <trkpt lat="42.77872" lon="1.70092">
        <ele>580.29</ele>
        <time>2017-02-25T13:53:03Z</time>
      </trkpt>
      <trkpt lat="42.7787" lon="1.70101">
        <ele>581.25</ele>
        <time>2017-02-25T13:53:19Z</time>
      </trkpt>
      <trkpt lat="42.77869" lon="1.70101">
        <ele>581.73</ele>
        <time>2017-02-25T13:53:49Z</time>
      </trkpt>
      <trkpt lat="42.77869" lon="1.70104">
        <ele>582.22</ele>
        <time>2017-02-25T13:53:56Z</time>
      </trkpt>
      <trkpt lat="42.77869" lon="1.70109">
        <ele>581.73</ele>
        <time>2017-02-25T13:53:59Z</time>
      </trkpt>
      <trkpt lat="42.77867" lon="1.70115">
        <ele>582.22</ele>
        <time>2017-02-25T13:54:04Z</time>
      </trkpt>
      <trkpt lat="42.77863" lon="1.70127">
        <ele>583.66</ele>
        <time>2017-02-25T13:54:18Z</time>
      </trkpt>
      <trkpt lat="42.7786" lon="1.70141">
        <ele>586.06</ele>
        <time>2017-02-25T13:54:32Z</time>
      </trkpt>
      <trkpt lat="42.77858" lon="1.70154">
        <ele>587.5</ele>
        <time>2017-02-25T13:54:48Z</time>
      </trkpt>
      <trkpt lat="42.77857" lon="1.7016">
        <ele>587.02</ele>
        <time>2017-02-25T13:55:03Z</time>
      </trkpt>
      <trkpt lat="42.77856" lon="1.70174">
        <ele>588.46</ele>
        <time>2017-02-25T13:55:17Z</time>
      </trkpt>
      <trkpt lat="42.77856" lon="1.70191">
        <ele>587.5</ele>
        <time>2017-02-25T13:55:30Z</time>
      </trkpt>
      <trkpt lat="42.77854" lon="1.70197">
        <ele>587.98</ele>
        <time>2017-02-25T13:55:42Z</time>
      </trkpt>
      <trkpt lat="42.77855" lon="1.70212">
        <ele>590.39</ele>
        <time>2017-02-25T13:55:56Z</time>
      </trkpt>
      <trkpt lat="42.77856" lon="1.70228">
        <ele>590.87</ele>
        <time>2017-02-25T13:56:10Z</time>
      </trkpt>
      <trkpt lat="42.77857" lon="1.70245">
        <ele>591.35</ele>
        <time>2017-02-25T13:56:27Z</time>
      </trkpt>
      <trkpt lat="42.77855" lon="1.70257">
        <ele>592.31</ele>
        <time>2017-02-25T13:56:36Z</time>
      </trkpt>
      <trkpt lat="42.77845" lon="1.70275">
        <ele>593.75</ele>
        <time>2017-02-25T13:56:52Z</time>
      </trkpt>
      <trkpt lat="42.77833" lon="1.70289">
        <ele>595.19</ele>
        <time>2017-02-25T13:57:07Z</time>
      </trkpt>
      <trkpt lat="42.77829" lon="1.70299">
        <ele>596.15</ele>
        <time>2017-02-25T13:57:15Z</time>
      </trkpt>
      <trkpt lat="42.7783" lon="1.70318">
        <ele>597.6</ele>
        <time>2017-02-25T13:57:29Z</time>
      </trkpt>
      <trkpt lat="42.77828" lon="1.70339">
        <ele>599.04</ele>
        <time>2017-02-25T13:57:43Z</time>
      </trkpt>
      <trkpt lat="42.77837" lon="1.70351">
        <ele>600</ele>
        <time>2017-02-25T13:57:58Z</time>
      </trkpt>
      <trkpt lat="42.77839" lon="1.7035">
        <ele>600</ele>
        <time>2017-02-25T13:58:00Z</time>
      </trkpt>
      <trkpt lat="42.77846" lon="1.70336">
        <ele>599.52</ele>
        <time>2017-02-25T13:58:12Z</time>
      </trkpt>
      <trkpt lat="42.77855" lon="1.70324">
        <ele>600.96</ele>
        <time>2017-02-25T13:58:27Z</time>
      </trkpt>
      <trkpt lat="42.77866" lon="1.70315">
        <ele>600</ele>
        <time>2017-02-25T13:58:40Z</time>
      </trkpt>
      <trkpt lat="42.77879" lon="1.70297">
        <ele>601.92</ele>
        <time>2017-02-25T13:58:58Z</time>
      </trkpt>
      <trkpt lat="42.7788" lon="1.70293">
        <ele>602.88</ele>
        <time>2017-02-25T13:59:10Z</time>
      </trkpt>
      <trkpt lat="42.77881" lon="1.70291">
        <ele>602.88</ele>
        <time>2017-02-25T13:59:16Z</time>
      </trkpt>
      <trkpt lat="42.77884" lon="1.70279">
        <ele>604.33</ele>
        <time>2017-02-25T13:59:26Z</time>
      </trkpt>
      <trkpt lat="42.77885" lon="1.70275">
        <ele>605.77</ele>
        <time>2017-02-25T13:59:29Z</time>
      </trkpt>
      <trkpt lat="42.77885" lon="1.70264">
        <ele>606.73</ele>
        <time>2017-02-25T13:59:35Z</time>
      </trkpt>
      <trkpt lat="42.77889" lon="1.70229">
        <ele>607.69</ele>
        <time>2017-02-25T13:59:54Z</time>
      </trkpt>
      <trkpt lat="42.77895" lon="1.70202">
        <ele>608.65</ele>
        <time>2017-02-25T14:00:09Z</time>
      </trkpt>
      <trkpt lat="42.77901" lon="1.70176">
        <ele>611.54</ele>
        <time>2017-02-25T14:00:24Z</time>
      </trkpt>
      <trkpt lat="42.77903" lon="1.7016">
        <ele>612.5</ele>
        <time>2017-02-25T14:00:37Z</time>
      </trkpt>
      <trkpt lat="42.77902" lon="1.70161">
        <ele>609.13</ele>
        <time>2017-02-25T14:01:13Z</time>
      </trkpt>
      <trkpt lat="42.77902" lon="1.70161">
        <ele>610.09</ele>
        <time>2017-02-25T14:01:19Z</time>
      </trkpt>
      <trkpt lat="42.77904" lon="1.7015">
        <ele>608.65</ele>
        <time>2017-02-25T14:01:32Z</time>
      </trkpt>
      <trkpt lat="42.77905" lon="1.70149">
        <ele>610.09</ele>
        <time>2017-02-25T14:01:46Z</time>
      </trkpt>
      <trkpt lat="42.77905" lon="1.70149">
        <ele>611.54</ele>
        <time>2017-02-25T14:02:14Z</time>
      </trkpt>
      <trkpt lat="42.77905" lon="1.70149">
        <ele>612.98</ele>
        <time>2017-02-25T14:02:46Z</time>
      </trkpt>
      <trkpt lat="42.77905" lon="1.70149">
        <ele>612.98</ele>
        <time>2017-02-25T14:03:20Z</time>
      </trkpt>
      <trkpt lat="42.77904" lon="1.7015">
        <ele>612.98</ele>
        <time>2017-02-25T14:03:49Z</time>
      </trkpt>
      <trkpt lat="42.77904" lon="1.70149">
        <ele>612.5</ele>
        <time>2017-02-25T14:04:13Z</time>
      </trkpt>
      <trkpt lat="42.77904" lon="1.7015">
        <ele>613.46</ele>
        <time>2017-02-25T14:04:49Z</time>
      </trkpt>
      <trkpt lat="42.77904" lon="1.70149">
        <ele>612.5</ele>
        <time>2017-02-25T14:05:17Z</time>
      </trkpt>
      <trkpt lat="42.77903" lon="1.70149">
        <ele>612.98</ele>
        <time>2017-02-25T14:05:51Z</time>
      </trkpt>
      <trkpt lat="42.77904" lon="1.7015">
        <ele>612.98</ele>
        <time>2017-02-25T14:06:22Z</time>
      </trkpt>
      <trkpt lat="42.77904" lon="1.70149">
        <ele>613.46</ele>
        <time>2017-02-25T14:06:49Z</time>
      </trkpt>
      <trkpt lat="42.77903" lon="1.70148">
        <ele>613.94</ele>
        <time>2017-02-25T14:07:16Z</time>
      </trkpt>
      <trkpt lat="42.77903" lon="1.70149">
        <ele>612.98</ele>
        <time>2017-02-25T14:07:35Z</time>
      </trkpt>
      <trkpt lat="42.77904" lon="1.70149">
        <ele>613.46</ele>
        <time>2017-02-25T14:07:38Z</time>
      </trkpt>
      <trkpt lat="42.77909" lon="1.70155">
        <ele>612.5</ele>
        <time>2017-02-25T14:07:45Z</time>
      </trkpt>
      <trkpt lat="42.7791" lon="1.70176">
        <ele>613.94</ele>
        <time>2017-02-25T14:08:03Z</time>
      </trkpt>
      <trkpt lat="42.77908" lon="1.70187">
        <ele>613.94</ele>
        <time>2017-02-25T14:08:14Z</time>
      </trkpt>
      <trkpt lat="42.77905" lon="1.70207">
        <ele>613.46</ele>
        <time>2017-02-25T14:08:30Z</time>
      </trkpt>
      <trkpt lat="42.77903" lon="1.70227">
        <ele>614.42</ele>
        <time>2017-02-25T14:08:44Z</time>
      </trkpt>
      <trkpt lat="42.77906" lon="1.70252">
        <ele>615.86</ele>
        <time>2017-02-25T14:09:02Z</time>
      </trkpt>
      <trkpt lat="42.7791" lon="1.7027">
        <ele>616.34</ele>
        <time>2017-02-25T14:09:16Z</time>
      </trkpt>
      <trkpt lat="42.77911" lon="1.70275">
        <ele>617.3</ele>
        <time>2017-02-25T14:09:20Z</time>
      </trkpt>
      <trkpt lat="42.77914" lon="1.70282">
        <ele>617.78</ele>
        <time>2017-02-25T14:09:35Z</time>
      </trkpt>
      <trkpt lat="42.77917" lon="1.70297">
        <ele>617.78</ele>
        <time>2017-02-25T14:09:45Z</time>
      </trkpt>
      <trkpt lat="42.77919" lon="1.70308">
        <ele>618.26</ele>
        <time>2017-02-25T14:09:53Z</time>
      </trkpt>
      <trkpt lat="42.77921" lon="1.70316">
        <ele>618.26</ele>
        <time>2017-02-25T14:09:59Z</time>
      </trkpt>
      <trkpt lat="42.77923" lon="1.70326">
        <ele>618.26</ele>
        <time>2017-02-25T14:10:05Z</time>
      </trkpt>
      <trkpt lat="42.77926" lon="1.70335">
        <ele>618.75</ele>
        <time>2017-02-25T14:10:12Z</time>
      </trkpt>
      <trkpt lat="42.77927" lon="1.70338">
        <ele>619.23</ele>
        <time>2017-02-25T14:10:14Z</time>
      </trkpt>
      <trkpt lat="42.77929" lon="1.70347">
        <ele>619.71</ele>
        <time>2017-02-25T14:10:20Z</time>
      </trkpt>
      <trkpt lat="42.7793" lon="1.70353">
        <ele>619.71</ele>
        <time>2017-02-25T14:10:24Z</time>
      </trkpt>
      <trkpt lat="42.77931" lon="1.70355">
        <ele>619.23</ele>
        <time>2017-02-25T14:10:26Z</time>
      </trkpt>
      <trkpt lat="42.77931" lon="1.70359">
        <ele>618.26</ele>
        <time>2017-02-25T14:10:29Z</time>
      </trkpt>
      <trkpt lat="42.77932" lon="1.70362">
        <ele>618.26</ele>
        <time>2017-02-25T14:10:31Z</time>
      </trkpt>
      <trkpt lat="42.77934" lon="1.70385">
        <ele>620.67</ele>
        <time>2017-02-25T14:10:47Z</time>
      </trkpt>
      <trkpt lat="42.77936" lon="1.70394">
        <ele>621.63</ele>
        <time>2017-02-25T14:10:53Z</time>
      </trkpt>
      <trkpt lat="42.77937" lon="1.70416">
        <ele>623.07</ele>
        <time>2017-02-25T14:11:09Z</time>
      </trkpt>
      <trkpt lat="42.77934" lon="1.70438">
        <ele>624.51</ele>
        <time>2017-02-25T14:11:23Z</time>
      </trkpt>
      <trkpt lat="42.7793" lon="1.70451">
        <ele>624.99</ele>
        <time>2017-02-25T14:11:33Z</time>
      </trkpt>
      <trkpt lat="42.7793" lon="1.70454">
        <ele>624.99</ele>
        <time>2017-02-25T14:11:35Z</time>
      </trkpt>
      <trkpt lat="42.77929" lon="1.70461">
        <ele>625.47</ele>
        <time>2017-02-25T14:11:40Z</time>
      </trkpt>
      <trkpt lat="42.77928" lon="1.70467">
        <ele>626.44</ele>
        <time>2017-02-25T14:11:44Z</time>
      </trkpt>
      <trkpt lat="42.77925" lon="1.70491">
        <ele>626.92</ele>
        <time>2017-02-25T14:12:01Z</time>
      </trkpt>
      <trkpt lat="42.77926" lon="1.70511">
        <ele>625.96</ele>
        <time>2017-02-25T14:12:15Z</time>
      </trkpt>
      <trkpt lat="42.77926" lon="1.70512">
        <ele>625.96</ele>
        <time>2017-02-25T14:12:16Z</time>
      </trkpt>
      <trkpt lat="42.77927" lon="1.70538">
        <ele>626.92</ele>
        <time>2017-02-25T14:12:33Z</time>
      </trkpt>
      <trkpt lat="42.77927" lon="1.70545">
        <ele>627.4</ele>
        <time>2017-02-25T14:12:38Z</time>
      </trkpt>
      <trkpt lat="42.77922" lon="1.7057">
        <ele>631.72</ele>
        <time>2017-02-25T14:12:54Z</time>
      </trkpt>
      <trkpt lat="42.77919" lon="1.70589">
        <ele>632.68</ele>
        <time>2017-02-25T14:13:07Z</time>
      </trkpt>
      <trkpt lat="42.77918" lon="1.70599">
        <ele>633.17</ele>
        <time>2017-02-25T14:13:14Z</time>
      </trkpt>
      <trkpt lat="42.77918" lon="1.70607">
        <ele>634.61</ele>
        <time>2017-02-25T14:13:20Z</time>
      </trkpt>
      <trkpt lat="42.77917" lon="1.70613">
        <ele>635.09</ele>
        <time>2017-02-25T14:13:24Z</time>
      </trkpt>
      <trkpt lat="42.77915" lon="1.70632">
        <ele>635.57</ele>
        <time>2017-02-25T14:13:37Z</time>
      </trkpt>
      <trkpt lat="42.7792" lon="1.70643">
        <ele>635.57</ele>
        <time>2017-02-25T14:13:49Z</time>
      </trkpt>
      <trkpt lat="42.77921" lon="1.70641">
        <ele>635.09</ele>
        <time>2017-02-25T14:13:51Z</time>
      </trkpt>
      <trkpt lat="42.77924" lon="1.70635">
        <ele>634.61</ele>
        <time>2017-02-25T14:13:55Z</time>
      </trkpt>
      <trkpt lat="42.77925" lon="1.70626">
        <ele>634.61</ele>
        <time>2017-02-25T14:14:01Z</time>
      </trkpt>
      <trkpt lat="42.7793" lon="1.70607">
        <ele>634.61</ele>
        <time>2017-02-25T14:14:15Z</time>
      </trkpt>
      <trkpt lat="42.7793" lon="1.70607">
        <ele>636.05</ele>
        <time>2017-02-25T14:14:29Z</time>
      </trkpt>
      <trkpt lat="42.77932" lon="1.70605">
        <ele>637.49</ele>
        <time>2017-02-25T14:14:42Z</time>
      </trkpt>
      <trkpt lat="42.77932" lon="1.70606">
        <ele>637.97</ele>
        <time>2017-02-25T14:15:09Z</time>
      </trkpt>
      <trkpt lat="42.77932" lon="1.70606">
        <ele>638.93</ele>
        <time>2017-02-25T14:15:39Z</time>
      </trkpt>
      <trkpt lat="42.77932" lon="1.70605">
        <ele>638.93</ele>
        <time>2017-02-25T14:16:10Z</time>
      </trkpt>
      <trkpt lat="42.77932" lon="1.70605">
        <ele>639.41</ele>
        <time>2017-02-25T14:16:35Z</time>
      </trkpt>
      <trkpt lat="42.77935" lon="1.706">
        <ele>639.89</ele>
        <time>2017-02-25T14:17:00Z</time>
      </trkpt>
      <trkpt lat="42.77939" lon="1.70588">
        <ele>638.45</ele>
        <time>2017-02-25T14:17:09Z</time>
      </trkpt>
      <trkpt lat="42.77947" lon="1.70569">
        <ele>639.89</ele>
        <time>2017-02-25T14:17:25Z</time>
      </trkpt>
      <trkpt lat="42.77952" lon="1.70552">
        <ele>640.38</ele>
        <time>2017-02-25T14:17:41Z</time>
      </trkpt>
      <trkpt lat="42.77956" lon="1.70537">
        <ele>641.82</ele>
        <time>2017-02-25T14:18:00Z</time>
      </trkpt>
      <trkpt lat="42.77968" lon="1.70501">
        <ele>646.14</ele>
        <time>2017-02-25T14:18:25Z</time>
      </trkpt>
      <trkpt lat="42.77981" lon="1.70471">
        <ele>647.1</ele>
        <time>2017-02-25T14:18:46Z</time>
      </trkpt>
      <trkpt lat="42.77992" lon="1.7044">
        <ele>648.07</ele>
        <time>2017-02-25T14:19:07Z</time>
      </trkpt>
      <trkpt lat="42.77998" lon="1.70418">
        <ele>646.62</ele>
        <time>2017-02-25T14:19:23Z</time>
      </trkpt>
      <trkpt lat="42.78003" lon="1.70392">
        <ele>646.14</ele>
        <time>2017-02-25T14:19:43Z</time>
      </trkpt>
      <trkpt lat="42.78005" lon="1.70365">
        <ele>646.62</ele>
        <time>2017-02-25T14:20:03Z</time>
      </trkpt>
      <trkpt lat="42.78005" lon="1.70342">
        <ele>647.1</ele>
        <time>2017-02-25T14:20:23Z</time>
      </trkpt>
      <trkpt lat="42.78005" lon="1.70331">
        <ele>648.55</ele>
        <time>2017-02-25T14:20:45Z</time>
      </trkpt>
      <trkpt lat="42.78003" lon="1.70308">
        <ele>652.87</ele>
        <time>2017-02-25T14:21:00Z</time>
      </trkpt>
      <trkpt lat="42.77999" lon="1.70292">
        <ele>654.31</ele>
        <time>2017-02-25T14:21:11Z</time>
      </trkpt>
      <trkpt lat="42.77997" lon="1.70285">
        <ele>653.83</ele>
        <time>2017-02-25T14:21:24Z</time>
      </trkpt>
      <trkpt lat="42.78004" lon="1.70282">
        <ele>651.91</ele>
        <time>2017-02-25T14:21:38Z</time>
      </trkpt>
      <trkpt lat="42.78007" lon="1.70289">
        <ele>652.87</ele>
        <time>2017-02-25T14:21:50Z</time>
      </trkpt>
      <trkpt lat="42.78007" lon="1.7029">
        <ele>652.87</ele>
        <time>2017-02-25T14:21:57Z</time>
      </trkpt>
      <trkpt lat="42.7801" lon="1.70309">
        <ele>652.87</ele>
        <time>2017-02-25T14:22:11Z</time>
      </trkpt>
      <trkpt lat="42.78017" lon="1.70338">
        <ele>656.24</ele>
        <time>2017-02-25T14:22:29Z</time>
      </trkpt>
      <trkpt lat="42.78023" lon="1.70365">
        <ele>655.28</ele>
        <time>2017-02-25T14:22:50Z</time>
      </trkpt>
      <trkpt lat="42.78036" lon="1.70393">
        <ele>660.56</ele>
        <time>2017-02-25T14:23:09Z</time>
      </trkpt>
      <trkpt lat="42.78038" lon="1.70401">
        <ele>662.49</ele>
        <time>2017-02-25T14:23:14Z</time>
      </trkpt>
      <trkpt lat="42.7804" lon="1.70408">
        <ele>663.93</ele>
        <time>2017-02-25T14:23:19Z</time>
      </trkpt>
      <trkpt lat="42.78042" lon="1.70422">
        <ele>665.37</ele>
        <time>2017-02-25T14:23:28Z</time>
      </trkpt>
      <trkpt lat="42.78043" lon="1.70428">
        <ele>666.33</ele>
        <time>2017-02-25T14:23:32Z</time>
      </trkpt>
      <trkpt lat="42.78045" lon="1.70441">
        <ele>668.73</ele>
        <time>2017-02-25T14:23:40Z</time>
      </trkpt>
      <trkpt lat="42.78045" lon="1.70444">
        <ele>669.7</ele>
        <time>2017-02-25T14:23:42Z</time>
      </trkpt>
      <trkpt lat="42.78046" lon="1.70456">
        <ele>669.22</ele>
        <time>2017-02-25T14:23:50Z</time>
      </trkpt>
      <trkpt lat="42.78046" lon="1.70465">
        <ele>669.7</ele>
        <time>2017-02-25T14:23:56Z</time>
      </trkpt>
      <trkpt lat="42.78046" lon="1.70469">
        <ele>669.7</ele>
        <time>2017-02-25T14:23:59Z</time>
      </trkpt>
      <trkpt lat="42.78048" lon="1.70491">
        <ele>670.66</ele>
        <time>2017-02-25T14:24:13Z</time>
      </trkpt>
      <trkpt lat="42.78048" lon="1.705">
        <ele>671.62</ele>
        <time>2017-02-25T14:24:19Z</time>
      </trkpt>
      <trkpt lat="42.78049" lon="1.7052">
        <ele>673.54</ele>
        <time>2017-02-25T14:24:32Z</time>
      </trkpt>
      <trkpt lat="42.7805" lon="1.70526">
        <ele>674.02</ele>
        <time>2017-02-25T14:24:36Z</time>
      </trkpt>
      <trkpt lat="42.7805" lon="1.70528">
        <ele>674.5</ele>
        <time>2017-02-25T14:24:38Z</time>
      </trkpt>
      <trkpt lat="42.7805" lon="1.70533">
        <ele>674.5</ele>
        <time>2017-02-25T14:24:41Z</time>
      </trkpt>
      <trkpt lat="42.78053" lon="1.70553">
        <ele>674.98</ele>
        <time>2017-02-25T14:24:56Z</time>
      </trkpt>
      <trkpt lat="42.78055" lon="1.70576">
        <ele>675.46</ele>
        <time>2017-02-25T14:25:11Z</time>
      </trkpt>
      <trkpt lat="42.78056" lon="1.70602">
        <ele>677.87</ele>
        <time>2017-02-25T14:25:29Z</time>
      </trkpt>
      <trkpt lat="42.78056" lon="1.70624">
        <ele>679.79</ele>
        <time>2017-02-25T14:25:43Z</time>
      </trkpt>
      <trkpt lat="42.78056" lon="1.70629">
        <ele>678.35</ele>
        <time>2017-02-25T14:25:57Z</time>
      </trkpt>
      <trkpt lat="42.78056" lon="1.70629">
        <ele>678.83</ele>
        <time>2017-02-25T14:26:25Z</time>
      </trkpt>
      <trkpt lat="42.78056" lon="1.70629">
        <ele>678.83</ele>
        <time>2017-02-25T14:26:51Z</time>
      </trkpt>
      <trkpt lat="42.78056" lon="1.70629">
        <ele>677.87</ele>
        <time>2017-02-25T14:27:03Z</time>
      </trkpt>
      <trkpt lat="42.78056" lon="1.70629">
        <ele>677.39</ele>
        <time>2017-02-25T14:27:33Z</time>
      </trkpt>
      <trkpt lat="42.78055" lon="1.70629">
        <ele>676.42</ele>
        <time>2017-02-25T14:27:58Z</time>
      </trkpt>
      <trkpt lat="42.78054" lon="1.70628">
        <ele>675.94</ele>
        <time>2017-02-25T14:28:18Z</time>
      </trkpt>
      <trkpt lat="42.78054" lon="1.70628">
        <ele>675.94</ele>
        <time>2017-02-25T14:28:39Z</time>
      </trkpt>
      <trkpt lat="42.78054" lon="1.70629">
        <ele>676.42</ele>
        <time>2017-02-25T14:29:07Z</time>
      </trkpt>
      <trkpt lat="42.78054" lon="1.70629">
        <ele>676.91</ele>
        <time>2017-02-25T14:29:34Z</time>
      </trkpt>
      <trkpt lat="42.78055" lon="1.70628">
        <ele>676.42</ele>
        <time>2017-02-25T14:30:06Z</time>
      </trkpt>
      <trkpt lat="42.78054" lon="1.70628">
        <ele>675.94</ele>
        <time>2017-02-25T14:30:36Z</time>
      </trkpt>
      <trkpt lat="42.78054" lon="1.70628">
        <ele>675.94</ele>
        <time>2017-02-25T14:31:00Z</time>
      </trkpt>
      <trkpt lat="42.78054" lon="1.70633">
        <ele>676.42</ele>
        <time>2017-02-25T14:31:22Z</time>
      </trkpt>
      <trkpt lat="42.78053" lon="1.70651">
        <ele>676.91</ele>
        <time>2017-02-25T14:31:36Z</time>
      </trkpt>
      <trkpt lat="42.78053" lon="1.70667">
        <ele>679.31</ele>
        <time>2017-02-25T14:31:49Z</time>
      </trkpt>
      <trkpt lat="42.78053" lon="1.70687">
        <ele>680.75</ele>
        <time>2017-02-25T14:32:02Z</time>
      </trkpt>
      <trkpt lat="42.78053" lon="1.70705">
        <ele>682.67</ele>
        <time>2017-02-25T14:32:15Z</time>
      </trkpt>
      <trkpt lat="42.78053" lon="1.70718">
        <ele>683.15</ele>
        <time>2017-02-25T14:32:24Z</time>
      </trkpt>
      <trkpt lat="42.78054" lon="1.70725">
        <ele>684.12</ele>
        <time>2017-02-25T14:32:29Z</time>
      </trkpt>
      <trkpt lat="42.78057" lon="1.70741">
        <ele>683.63</ele>
        <time>2017-02-25T14:32:41Z</time>
      </trkpt>
      <trkpt lat="42.78059" lon="1.70743">
        <ele>683.63</ele>
        <time>2017-02-25T14:32:43Z</time>
      </trkpt>
      <trkpt lat="42.78062" lon="1.70749">
        <ele>684.12</ele>
        <time>2017-02-25T14:32:48Z</time>
      </trkpt>
      <trkpt lat="42.78064" lon="1.70752">
        <ele>684.12</ele>
        <time>2017-02-25T14:32:50Z</time>
      </trkpt>
      <trkpt lat="42.78067" lon="1.70755">
        <ele>684.12</ele>
        <time>2017-02-25T14:32:54Z</time>
      </trkpt>
      <trkpt lat="42.78068" lon="1.70757">
        <ele>684.12</ele>
        <time>2017-02-25T14:32:56Z</time>
      </trkpt>
      <trkpt lat="42.78078" lon="1.70774">
        <ele>684.12</ele>
        <time>2017-02-25T14:33:11Z</time>
      </trkpt>
      <trkpt lat="42.78083" lon="1.70782">
        <ele>685.08</ele>
        <time>2017-02-25T14:33:19Z</time>
      </trkpt>
      <trkpt lat="42.7809" lon="1.70785">
        <ele>685.56</ele>
        <time>2017-02-25T14:33:28Z</time>
      </trkpt>
      <trkpt lat="42.78091" lon="1.70773">
        <ele>687</ele>
        <time>2017-02-25T14:33:36Z</time>
      </trkpt>
      <trkpt lat="42.78079" lon="1.70752">
        <ele>687.96</ele>
        <time>2017-02-25T14:33:53Z</time>
      </trkpt>
      <trkpt lat="42.78076" lon="1.70744">
        <ele>688.44</ele>
        <time>2017-02-25T14:34:01Z</time>
      </trkpt>
      <trkpt lat="42.78074" lon="1.70741">
        <ele>688.44</ele>
        <time>2017-02-25T14:34:03Z</time>
      </trkpt>
      <trkpt lat="42.7807" lon="1.70729">
        <ele>688.44</ele>
        <time>2017-02-25T14:34:14Z</time>
      </trkpt>
      <trkpt lat="42.78072" lon="1.70719">
        <ele>687.96</ele>
        <time>2017-02-25T14:34:21Z</time>
      </trkpt>
      <trkpt lat="42.78078" lon="1.70699">
        <ele>689.4</ele>
        <time>2017-02-25T14:34:36Z</time>
      </trkpt>
      <trkpt lat="42.78082" lon="1.70681">
        <ele>689.88</ele>
        <time>2017-02-25T14:34:49Z</time>
      </trkpt>
      <trkpt lat="42.78088" lon="1.70662">
        <ele>689.4</ele>
        <time>2017-02-25T14:35:04Z</time>
      </trkpt>
      <trkpt lat="42.78094" lon="1.70643">
        <ele>689.4</ele>
        <time>2017-02-25T14:35:19Z</time>
      </trkpt>
      <trkpt lat="42.78097" lon="1.70638">
        <ele>688.92</ele>
        <time>2017-02-25T14:35:23Z</time>
      </trkpt>
      <trkpt lat="42.78098" lon="1.70635">
        <ele>689.4</ele>
        <time>2017-02-25T14:35:25Z</time>
      </trkpt>
      <trkpt lat="42.78104" lon="1.70617">
        <ele>691.81</ele>
        <time>2017-02-25T14:35:40Z</time>
      </trkpt>
      <trkpt lat="42.78107" lon="1.70608">
        <ele>691.81</ele>
        <time>2017-02-25T14:35:47Z</time>
      </trkpt>
      <trkpt lat="42.78108" lon="1.70591">
        <ele>692.29</ele>
        <time>2017-02-25T14:35:59Z</time>
      </trkpt>
      <trkpt lat="42.78108" lon="1.7057">
        <ele>695.17</ele>
        <time>2017-02-25T14:36:14Z</time>
      </trkpt>
      <trkpt lat="42.78108" lon="1.70552">
        <ele>697.57</ele>
        <time>2017-02-25T14:36:28Z</time>
      </trkpt>
      <trkpt lat="42.78108" lon="1.70532">
        <ele>698.05</ele>
        <time>2017-02-25T14:36:43Z</time>
      </trkpt>
      <trkpt lat="42.78109" lon="1.70511">
        <ele>698.53</ele>
        <time>2017-02-25T14:36:58Z</time>
      </trkpt>
      <trkpt lat="42.78109" lon="1.7051">
        <ele>698.53</ele>
        <time>2017-02-25T14:36:59Z</time>
      </trkpt>
      <trkpt lat="42.78112" lon="1.70499">
        <ele>698.53</ele>
        <time>2017-02-25T14:37:07Z</time>
      </trkpt>
      <trkpt lat="42.78113" lon="1.70493">
        <ele>698.53</ele>
        <time>2017-02-25T14:37:11Z</time>
      </trkpt>
      <trkpt lat="42.78119" lon="1.70475">
        <ele>699.02</ele>
        <time>2017-02-25T14:37:25Z</time>
      </trkpt>
      <trkpt lat="42.78124" lon="1.70457">
        <ele>699.02</ele>
        <time>2017-02-25T14:37:38Z</time>
      </trkpt>
      <trkpt lat="42.78132" lon="1.70438">
        <ele>700.46</ele>
        <time>2017-02-25T14:37:53Z</time>
      </trkpt>
      <trkpt lat="42.78137" lon="1.70419">
        <ele>701.42</ele>
        <time>2017-02-25T14:38:07Z</time>
      </trkpt>
      <trkpt lat="42.78138" lon="1.70408">
        <ele>703.34</ele>
        <time>2017-02-25T14:38:18Z</time>
      </trkpt>
      <trkpt lat="42.78141" lon="1.70389">
        <ele>703.82</ele>
        <time>2017-02-25T14:38:32Z</time>
      </trkpt>
      <trkpt lat="42.78141" lon="1.70372">
        <ele>704.78</ele>
        <time>2017-02-25T14:38:44Z</time>
      </trkpt>
      <trkpt lat="42.7814" lon="1.70366">
        <ele>705.26</ele>
        <time>2017-02-25T14:38:48Z</time>
      </trkpt>
      <trkpt lat="42.7814" lon="1.70364">
        <ele>705.75</ele>
        <time>2017-02-25T14:38:50Z</time>
      </trkpt>
      <trkpt lat="42.78136" lon="1.70343">
        <ele>706.71</ele>
        <time>2017-02-25T14:39:05Z</time>
      </trkpt>
      <trkpt lat="42.78134" lon="1.70336">
        <ele>708.15</ele>
        <time>2017-02-25T14:39:10Z</time>
      </trkpt>
      <trkpt lat="42.78134" lon="1.70333">
        <ele>708.63</ele>
        <time>2017-02-25T14:39:12Z</time>
      </trkpt>
      <trkpt lat="42.78131" lon="1.70327">
        <ele>709.11</ele>
        <time>2017-02-25T14:39:17Z</time>
      </trkpt>
      <trkpt lat="42.78129" lon="1.70318">
        <ele>709.11</ele>
        <time>2017-02-25T14:39:24Z</time>
      </trkpt>
      <trkpt lat="42.78128" lon="1.70315">
        <ele>708.63</ele>
        <time>2017-02-25T14:39:26Z</time>
      </trkpt>
      <trkpt lat="42.78128" lon="1.70299">
        <ele>709.11</ele>
        <time>2017-02-25T14:39:42Z</time>
      </trkpt>
      <trkpt lat="42.78127" lon="1.70296">
        <ele>709.59</ele>
        <time>2017-02-25T14:39:52Z</time>
      </trkpt>
      <trkpt lat="42.78126" lon="1.70297">
        <ele>709.11</ele>
        <time>2017-02-25T14:40:07Z</time>
      </trkpt>
      <trkpt lat="42.78126" lon="1.70297">
        <ele>709.59</ele>
        <time>2017-02-25T14:40:36Z</time>
      </trkpt>
      <trkpt lat="42.78126" lon="1.70297">
        <ele>709.59</ele>
        <time>2017-02-25T14:41:03Z</time>
      </trkpt>
      <trkpt lat="42.78126" lon="1.70297">
        <ele>707.67</ele>
        <time>2017-02-25T14:41:36Z</time>
      </trkpt>
      <trkpt lat="42.78127" lon="1.70296">
        <ele>707.19</ele>
        <time>2017-02-25T14:41:56Z</time>
      </trkpt>
      <trkpt lat="42.78136" lon="1.70306">
        <ele>707.67</ele>
        <time>2017-02-25T14:42:12Z</time>
      </trkpt>
      <trkpt lat="42.78139" lon="1.70322">
        <ele>710.07</ele>
        <time>2017-02-25T14:42:26Z</time>
      </trkpt>
      <trkpt lat="42.78142" lon="1.70331">
        <ele>710.55</ele>
        <time>2017-02-25T14:42:38Z</time>
      </trkpt>
      <trkpt lat="42.78147" lon="1.70341">
        <ele>711.03</ele>
        <time>2017-02-25T14:42:54Z</time>
      </trkpt>
      <trkpt lat="42.78152" lon="1.7035">
        <ele>712.95</ele>
        <time>2017-02-25T14:43:06Z</time>
      </trkpt>
      <trkpt lat="42.78154" lon="1.70354">
        <ele>713.44</ele>
        <time>2017-02-25T14:43:10Z</time>
      </trkpt>
      <trkpt lat="42.78164" lon="1.70368">
        <ele>713.92</ele>
        <time>2017-02-25T14:43:24Z</time>
      </trkpt>
      <trkpt lat="42.78165" lon="1.7037">
        <ele>713.92</ele>
        <time>2017-02-25T14:43:26Z</time>
      </trkpt>
      <trkpt lat="42.78172" lon="1.70389">
        <ele>713.44</ele>
        <time>2017-02-25T14:43:41Z</time>
      </trkpt>
      <trkpt lat="42.78178" lon="1.70408">
        <ele>712.95</ele>
        <time>2017-02-25T14:43:55Z</time>
      </trkpt>
      <trkpt lat="42.78179" lon="1.70419">
        <ele>714.4</ele>
        <time>2017-02-25T14:44:09Z</time>
      </trkpt>
      <trkpt lat="42.78183" lon="1.70432">
        <ele>715.84</ele>
        <time>2017-02-25T14:44:19Z</time>
      </trkpt>
      <trkpt lat="42.78184" lon="1.70436">
        <ele>716.32</ele>
        <time>2017-02-25T14:44:22Z</time>
      </trkpt>
      <trkpt lat="42.78185" lon="1.70439">
        <ele>716.32</ele>
        <time>2017-02-25T14:44:24Z</time>
      </trkpt>
      <trkpt lat="42.78191" lon="1.70457">
        <ele>712.95</ele>
        <time>2017-02-25T14:44:38Z</time>
      </trkpt>
      <trkpt lat="42.78195" lon="1.7046">
        <ele>712.95</ele>
        <time>2017-02-25T14:44:42Z</time>
      </trkpt>
      <trkpt lat="42.78196" lon="1.70461">
        <ele>712.95</ele>
        <time>2017-02-25T14:44:44Z</time>
      </trkpt>
      <trkpt lat="42.782" lon="1.70462">
        <ele>713.44</ele>
        <time>2017-02-25T14:44:48Z</time>
      </trkpt>
      <trkpt lat="42.78214" lon="1.70458">
        <ele>716.8</ele>
        <time>2017-02-25T14:45:03Z</time>
      </trkpt>
      <trkpt lat="42.78217" lon="1.70457">
        <ele>717.28</ele>
        <time>2017-02-25T14:45:06Z</time>
      </trkpt>
      <trkpt lat="42.78231" lon="1.70446">
        <ele>718.72</ele>
        <time>2017-02-25T14:45:21Z</time>
      </trkpt>
      <trkpt lat="42.78243" lon="1.70437">
        <ele>718.24</ele>
        <time>2017-02-25T14:45:34Z</time>
      </trkpt>
      <trkpt lat="42.78258" lon="1.70427">
        <ele>719.2</ele>
        <time>2017-02-25T14:45:50Z</time>
      </trkpt>
      <trkpt lat="42.78274" lon="1.70418">
        <ele>720.16</ele>
        <time>2017-02-25T14:46:06Z</time>
      </trkpt>
      <trkpt lat="42.78294" lon="1.70409">
        <ele>721.13</ele>
        <time>2017-02-25T14:46:24Z</time>
      </trkpt>
      <trkpt lat="42.78314" lon="1.70402">
        <ele>721.13</ele>
        <time>2017-02-25T14:46:41Z</time>
      </trkpt>
      <trkpt lat="42.78327" lon="1.70393">
        <ele>722.09</ele>
        <time>2017-02-25T14:46:54Z</time>
      </trkpt>
      <trkpt lat="42.78336" lon="1.70382">
        <ele>725.45</ele>
        <time>2017-02-25T14:47:07Z</time>
      </trkpt>
      <trkpt lat="42.78341" lon="1.70371">
        <ele>725.45</ele>
        <time>2017-02-25T14:47:19Z</time>
      </trkpt>
      <trkpt lat="42.78346" lon="1.70366">
        <ele>728.82</ele>
        <time>2017-02-25T14:47:32Z</time>
      </trkpt>
      <trkpt lat="42.78347" lon="1.70366">
        <ele>729.78</ele>
        <time>2017-02-25T14:48:01Z</time>
      </trkpt>
      <trkpt lat="42.78346" lon="1.70367">
        <ele>729.78</ele>
        <time>2017-02-25T14:48:26Z</time>
      </trkpt>
      <trkpt lat="42.78346" lon="1.70366">
        <ele>730.26</ele>
        <time>2017-02-25T14:48:37Z</time>
      </trkpt>
      <trkpt lat="42.78345" lon="1.70364">
        <ele>730.26</ele>
        <time>2017-02-25T14:48:46Z</time>
      </trkpt>
      <trkpt lat="42.78347" lon="1.70364">
        <ele>729.3</ele>
        <time>2017-02-25T14:49:06Z</time>
      </trkpt>
      <trkpt lat="42.78357" lon="1.70351">
        <ele>729.78</ele>
        <time>2017-02-25T14:49:20Z</time>
      </trkpt>
      <trkpt lat="42.78366" lon="1.70342">
        <ele>727.86</ele>
        <time>2017-02-25T14:49:34Z</time>
      </trkpt>
      <trkpt lat="42.78368" lon="1.70342">
        <ele>727.86</ele>
        <time>2017-02-25T14:49:51Z</time>
      </trkpt>
      <trkpt lat="42.78368" lon="1.70342">
        <ele>728.82</ele>
        <time>2017-02-25T14:50:05Z</time>
      </trkpt>
      <trkpt lat="42.78369" lon="1.70341">
        <ele>729.3</ele>
        <time>2017-02-25T14:50:35Z</time>
      </trkpt>
      <trkpt lat="42.78369" lon="1.70341">
        <ele>728.82</ele>
        <time>2017-02-25T14:51:05Z</time>
      </trkpt>
      <trkpt lat="42.7837" lon="1.70341">
        <ele>728.82</ele>
        <time>2017-02-25T14:51:24Z</time>
      </trkpt>
      <trkpt lat="42.78378" lon="1.70331">
        <ele>729.3</ele>
        <time>2017-02-25T14:51:38Z</time>
      </trkpt>
      <trkpt lat="42.78378" lon="1.70333">
        <ele>730.26</ele>
        <time>2017-02-25T14:51:58Z</time>
      </trkpt>
      <trkpt lat="42.78386" lon="1.70326">
        <ele>730.26</ele>
        <time>2017-02-25T14:52:20Z</time>
      </trkpt>
      <trkpt lat="42.78398" lon="1.70311">
        <ele>729.3</ele>
        <time>2017-02-25T14:52:34Z</time>
      </trkpt>
      <trkpt lat="42.78398" lon="1.7031">
        <ele>729.3</ele>
        <time>2017-02-25T14:52:35Z</time>
      </trkpt>
      <trkpt lat="42.78402" lon="1.70304">
        <ele>729.3</ele>
        <time>2017-02-25T14:52:40Z</time>
      </trkpt>
      <trkpt lat="42.78411" lon="1.70283">
        <ele>730.74</ele>
        <time>2017-02-25T14:52:54Z</time>
      </trkpt>
      <trkpt lat="42.78414" lon="1.70276">
        <ele>731.22</ele>
        <time>2017-02-25T14:52:59Z</time>
      </trkpt>
      <trkpt lat="42.78426" lon="1.70258">
        <ele>731.22</ele>
        <time>2017-02-25T14:53:16Z</time>
      </trkpt>
      <trkpt lat="42.78428" lon="1.70253">
        <ele>730.74</ele>
        <time>2017-02-25T14:53:20Z</time>
      </trkpt>
      <trkpt lat="42.7843" lon="1.70251">
        <ele>730.74</ele>
        <time>2017-02-25T14:53:22Z</time>
      </trkpt>
      <trkpt lat="42.78437" lon="1.70233">
        <ele>729.78</ele>
        <time>2017-02-25T14:53:38Z</time>
      </trkpt>
      <trkpt lat="42.78439" lon="1.70229">
        <ele>729.3</ele>
        <time>2017-02-25T14:53:52Z</time>
      </trkpt>
      <trkpt lat="42.78439" lon="1.70228">
        <ele>728.82</ele>
        <time>2017-02-25T14:54:21Z</time>
      </trkpt>
      <trkpt lat="42.78435" lon="1.70233">
        <ele>729.78</ele>
        <time>2017-02-25T14:54:35Z</time>
      </trkpt>
      <trkpt lat="42.78435" lon="1.70232">
        <ele>729.78</ele>
        <time>2017-02-25T14:54:45Z</time>
      </trkpt>
      <trkpt lat="42.78435" lon="1.70231">
        <ele>729.78</ele>
        <time>2017-02-25T14:54:58Z</time>
      </trkpt>
      <trkpt lat="42.78431" lon="1.70227">
        <ele>731.22</ele>
        <time>2017-02-25T14:55:12Z</time>
      </trkpt>
      <trkpt lat="42.78429" lon="1.70224">
        <ele>734.1</ele>
        <time>2017-02-25T14:55:31Z</time>
      </trkpt>
      <trkpt lat="42.78427" lon="1.70219">
        <ele>735.07</ele>
        <time>2017-02-25T14:55:43Z</time>
      </trkpt>
      <trkpt lat="42.78424" lon="1.70222">
        <ele>735.07</ele>
        <time>2017-02-25T14:56:00Z</time>
      </trkpt>
      <trkpt lat="42.7842" lon="1.70233">
        <ele>737.47</ele>
        <time>2017-02-25T14:56:16Z</time>
      </trkpt>
      <trkpt lat="42.78415" lon="1.7024">
        <ele>737.95</ele>
        <time>2017-02-25T14:56:31Z</time>
      </trkpt>
      <trkpt lat="42.78406" lon="1.70245">
        <ele>743.72</ele>
        <time>2017-02-25T14:56:43Z</time>
      </trkpt>
      <trkpt lat="42.78396" lon="1.7025">
        <ele>749</ele>
        <time>2017-02-25T14:56:55Z</time>
      </trkpt>
      <trkpt lat="42.78392" lon="1.7025">
        <ele>751.89</ele>
        <time>2017-02-25T14:57:07Z</time>
      </trkpt>
      <trkpt lat="42.78389" lon="1.70253">
        <ele>752.85</ele>
        <time>2017-02-25T14:57:18Z</time>
      </trkpt>
      <trkpt lat="42.78389" lon="1.70252">
        <ele>752.85</ele>
        <time>2017-02-25T14:57:41Z</time>
      </trkpt>
      <trkpt lat="42.78389" lon="1.70252">
        <ele>752.85</ele>
        <time>2017-02-25T14:58:00Z</time>
      </trkpt>
      <trkpt lat="42.7839" lon="1.70251">
        <ele>752.85</ele>
        <time>2017-02-25T14:58:21Z</time>
      </trkpt>
      <trkpt lat="42.78391" lon="1.70251">
        <ele>753.81</ele>
        <time>2017-02-25T14:58:50Z</time>
      </trkpt>
      <trkpt lat="42.78391" lon="1.70251">
        <ele>753.81</ele>
        <time>2017-02-25T14:59:15Z</time>
      </trkpt>
      <trkpt lat="42.78396" lon="1.7025">
        <ele>751.41</ele>
        <time>2017-02-25T14:59:28Z</time>
      </trkpt>
      <trkpt lat="42.78399" lon="1.70251">
        <ele>748.52</ele>
        <time>2017-02-25T14:59:42Z</time>
      </trkpt>
      <trkpt lat="42.78406" lon="1.70246">
        <ele>747.56</ele>
        <time>2017-02-25T14:59:55Z</time>
      </trkpt>
      <trkpt lat="42.78417" lon="1.70241">
        <ele>743.72</ele>
        <time>2017-02-25T15:00:13Z</time>
      </trkpt>
      <trkpt lat="42.7842" lon="1.70229">
        <ele>742.76</ele>
        <time>2017-02-25T15:00:30Z</time>
      </trkpt>
      <trkpt lat="42.78424" lon="1.70216">
        <ele>739.87</ele>
        <time>2017-02-25T15:00:51Z</time>
      </trkpt>
      <trkpt lat="42.78429" lon="1.7022">
        <ele>736.99</ele>
        <time>2017-02-25T15:01:04Z</time>
      </trkpt>
      <trkpt lat="42.7843" lon="1.70224">
        <ele>733.14</ele>
        <time>2017-02-25T15:01:18Z</time>
      </trkpt>
      <trkpt lat="42.7843" lon="1.7023">
        <ele>730.74</ele>
        <time>2017-02-25T15:01:32Z</time>
      </trkpt>
      <trkpt lat="42.78434" lon="1.7023">
        <ele>729.78</ele>
        <time>2017-02-25T15:01:45Z</time>
      </trkpt>
      <trkpt lat="42.78434" lon="1.70232">
        <ele>727.86</ele>
        <time>2017-02-25T15:01:59Z</time>
      </trkpt>
      <trkpt lat="42.78436" lon="1.70231">
        <ele>728.82</ele>
        <time>2017-02-25T15:02:13Z</time>
      </trkpt>
      <trkpt lat="42.78439" lon="1.70225">
        <ele>727.37</ele>
        <time>2017-02-25T15:02:24Z</time>
      </trkpt>
      <trkpt lat="42.78441" lon="1.70232">
        <ele>724.49</ele>
        <time>2017-02-25T15:02:37Z</time>
      </trkpt>
      <trkpt lat="42.78451" lon="1.70231">
        <ele>722.09</ele>
        <time>2017-02-25T15:02:52Z</time>
      </trkpt>
      <trkpt lat="42.78456" lon="1.7023">
        <ele>722.09</ele>
        <time>2017-02-25T15:02:57Z</time>
      </trkpt>
      <trkpt lat="42.78463" lon="1.70228">
        <ele>722.57</ele>
        <time>2017-02-25T15:03:05Z</time>
      </trkpt>
      <trkpt lat="42.78481" lon="1.70218">
        <ele>720.65</ele>
        <time>2017-02-25T15:03:25Z</time>
      </trkpt>
      <trkpt lat="42.78481" lon="1.70217">
        <ele>720.65</ele>
        <time>2017-02-25T15:03:26Z</time>
      </trkpt>
      <trkpt lat="42.78485" lon="1.70207">
        <ele>721.13</ele>
        <time>2017-02-25T15:03:42Z</time>
      </trkpt>
      <trkpt lat="42.78488" lon="1.70205">
        <ele>721.61</ele>
        <time>2017-02-25T15:03:55Z</time>
      </trkpt>
      <trkpt lat="42.78493" lon="1.702">
        <ele>721.13</ele>
        <time>2017-02-25T15:04:09Z</time>
      </trkpt>
      <trkpt lat="42.78495" lon="1.70192">
        <ele>723.05</ele>
        <time>2017-02-25T15:04:32Z</time>
      </trkpt>
      <trkpt lat="42.78499" lon="1.7018">
        <ele>722.57</ele>
        <time>2017-02-25T15:04:45Z</time>
      </trkpt>
      <trkpt lat="42.78504" lon="1.70164">
        <ele>721.61</ele>
        <time>2017-02-25T15:04:59Z</time>
      </trkpt>
      <trkpt lat="42.78508" lon="1.7015">
        <ele>718.72</ele>
        <time>2017-02-25T15:05:11Z</time>
      </trkpt>
      <trkpt lat="42.78514" lon="1.70131">
        <ele>715.36</ele>
        <time>2017-02-25T15:05:27Z</time>
      </trkpt>
      <trkpt lat="42.78514" lon="1.70128">
        <ele>713.92</ele>
        <time>2017-02-25T15:05:38Z</time>
      </trkpt>
      <trkpt lat="42.78517" lon="1.70118">
        <ele>711.51</ele>
        <time>2017-02-25T15:05:51Z</time>
      </trkpt>
      <trkpt lat="42.78521" lon="1.70108">
        <ele>710.07</ele>
        <time>2017-02-25T15:05:59Z</time>
      </trkpt>
      <trkpt lat="42.78531" lon="1.70087">
        <ele>706.23</ele>
        <time>2017-02-25T15:06:15Z</time>
      </trkpt>
      <trkpt lat="42.78536" lon="1.70071">
        <ele>702.86</ele>
        <time>2017-02-25T15:06:31Z</time>
      </trkpt>
      <trkpt lat="42.78536" lon="1.70069">
        <ele>701.9</ele>
        <time>2017-02-25T15:06:36Z</time>
      </trkpt>
      <trkpt lat="42.78539" lon="1.70056">
        <ele>698.53</ele>
        <time>2017-02-25T15:06:49Z</time>
      </trkpt>
      <trkpt lat="42.78543" lon="1.70052">
        <ele>697.09</ele>
        <time>2017-02-25T15:06:54Z</time>
      </trkpt>
      <trkpt lat="42.78563" lon="1.70038">
        <ele>695.17</ele>
        <time>2017-02-25T15:07:15Z</time>
      </trkpt>
      <trkpt lat="42.78572" lon="1.70031">
        <ele>694.21</ele>
        <time>2017-02-25T15:07:26Z</time>
      </trkpt>
      <trkpt lat="42.78575" lon="1.70026">
        <ele>693.25</ele>
        <time>2017-02-25T15:07:31Z</time>
      </trkpt>
      <trkpt lat="42.78582" lon="1.70022">
        <ele>690.84</ele>
        <time>2017-02-25T15:07:40Z</time>
      </trkpt>
      <trkpt lat="42.78594" lon="1.70008">
        <ele>686.52</ele>
        <time>2017-02-25T15:07:57Z</time>
      </trkpt>
      <trkpt lat="42.78605" lon="1.69996">
        <ele>683.15</ele>
        <time>2017-02-25T15:08:15Z</time>
      </trkpt>
      <trkpt lat="42.78617" lon="1.6998">
        <ele>679.79</ele>
        <time>2017-02-25T15:08:33Z</time>
      </trkpt>
      <trkpt lat="42.78621" lon="1.6998">
        <ele>678.35</ele>
        <time>2017-02-25T15:08:38Z</time>
      </trkpt>
      <trkpt lat="42.78632" lon="1.69974">
        <ele>677.39</ele>
        <time>2017-02-25T15:08:49Z</time>
      </trkpt>
      <trkpt lat="42.78641" lon="1.69957">
        <ele>673.06</ele>
        <time>2017-02-25T15:09:06Z</time>
      </trkpt>
      <trkpt lat="42.7865" lon="1.69943">
        <ele>670.66</ele>
        <time>2017-02-25T15:09:23Z</time>
      </trkpt>
      <trkpt lat="42.78661" lon="1.69929">
        <ele>667.77</ele>
        <time>2017-02-25T15:09:40Z</time>
      </trkpt>
      <trkpt lat="42.7867" lon="1.69927">
        <ele>664.89</ele>
        <time>2017-02-25T15:09:55Z</time>
      </trkpt>
      <trkpt lat="42.78674" lon="1.69922">
        <ele>661.04</ele>
        <time>2017-02-25T15:10:09Z</time>
      </trkpt>
      <trkpt lat="42.78679" lon="1.69921">
        <ele>660.08</ele>
        <time>2017-02-25T15:10:14Z</time>
      </trkpt>
      <trkpt lat="42.78691" lon="1.69911">
        <ele>656.72</ele>
        <time>2017-02-25T15:10:31Z</time>
      </trkpt>
      <trkpt lat="42.787" lon="1.69904">
        <ele>654.8</ele>
        <time>2017-02-25T15:10:41Z</time>
      </trkpt>
      <trkpt lat="42.78712" lon="1.6989">
        <ele>653.83</ele>
        <time>2017-02-25T15:10:57Z</time>
      </trkpt>
      <trkpt lat="42.78712" lon="1.69891">
        <ele>653.35</ele>
        <time>2017-02-25T15:11:03Z</time>
      </trkpt>
      <trkpt lat="42.78716" lon="1.69881">
        <ele>649.51</ele>
        <time>2017-02-25T15:11:15Z</time>
      </trkpt>
      <trkpt lat="42.78718" lon="1.69874">
        <ele>648.55</ele>
        <time>2017-02-25T15:11:27Z</time>
      </trkpt>
      <trkpt lat="42.78721" lon="1.69865">
        <ele>646.62</ele>
        <time>2017-02-25T15:11:40Z</time>
      </trkpt>
      <trkpt lat="42.78724" lon="1.69859">
        <ele>645.18</ele>
        <time>2017-02-25T15:11:53Z</time>
      </trkpt>
      <trkpt lat="42.78727" lon="1.69854">
        <ele>644.7</ele>
        <time>2017-02-25T15:12:05Z</time>
      </trkpt>
      <trkpt lat="42.78729" lon="1.69854">
        <ele>644.22</ele>
        <time>2017-02-25T15:12:15Z</time>
      </trkpt>
      <trkpt lat="42.78729" lon="1.69853">
        <ele>644.7</ele>
        <time>2017-02-25T15:12:26Z</time>
      </trkpt>
      <trkpt lat="42.78735" lon="1.69843">
        <ele>642.3</ele>
        <time>2017-02-25T15:12:39Z</time>
      </trkpt>
      <trkpt lat="42.78737" lon="1.69837">
        <ele>639.89</ele>
        <time>2017-02-25T15:12:45Z</time>
      </trkpt>
      <trkpt lat="42.78748" lon="1.6982">
        <ele>637.49</ele>
        <time>2017-02-25T15:13:00Z</time>
      </trkpt>
      <trkpt lat="42.78756" lon="1.69807">
        <ele>634.13</ele>
        <time>2017-02-25T15:13:15Z</time>
      </trkpt>
      <trkpt lat="42.78765" lon="1.69792">
        <ele>629.8</ele>
        <time>2017-02-25T15:13:33Z</time>
      </trkpt>
      <trkpt lat="42.78771" lon="1.69789">
        <ele>627.88</ele>
        <time>2017-02-25T15:13:45Z</time>
      </trkpt>
      <trkpt lat="42.78778" lon="1.69779">
        <ele>625.47</ele>
        <time>2017-02-25T15:13:59Z</time>
      </trkpt>
      <trkpt lat="42.78785" lon="1.69766">
        <ele>622.59</ele>
        <time>2017-02-25T15:14:14Z</time>
      </trkpt>
      <trkpt lat="42.78786" lon="1.69754">
        <ele>619.23</ele>
        <time>2017-02-25T15:14:28Z</time>
      </trkpt>
      <trkpt lat="42.78779" lon="1.69756">
        <ele>616.34</ele>
        <time>2017-02-25T15:14:44Z</time>
      </trkpt>
      <trkpt lat="42.78779" lon="1.6976">
        <ele>616.82</ele>
        <time>2017-02-25T15:15:12Z</time>
      </trkpt>
      <trkpt lat="42.78778" lon="1.69759">
        <ele>618.26</ele>
        <time>2017-02-25T15:15:47Z</time>
      </trkpt>
      <trkpt lat="42.78787" lon="1.69757">
        <ele>615.38</ele>
        <time>2017-02-25T15:16:00Z</time>
      </trkpt>
      <trkpt lat="42.78798" lon="1.69742">
        <ele>610.09</ele>
        <time>2017-02-25T15:16:13Z</time>
      </trkpt>
      <trkpt lat="42.78801" lon="1.69741">
        <ele>608.65</ele>
        <time>2017-02-25T15:16:16Z</time>
      </trkpt>
      <trkpt lat="42.78806" lon="1.69742">
        <ele>606.25</ele>
        <time>2017-02-25T15:16:20Z</time>
      </trkpt>
      <trkpt lat="42.78811" lon="1.69743">
        <ele>604.33</ele>
        <time>2017-02-25T15:16:33Z</time>
      </trkpt>
      <trkpt lat="42.7881" lon="1.69743">
        <ele>603.85</ele>
        <time>2017-02-25T15:16:48Z</time>
      </trkpt>
      <trkpt lat="42.78811" lon="1.69743">
        <ele>604.33</ele>
        <time>2017-02-25T15:16:52Z</time>
      </trkpt>
      <trkpt lat="42.78813" lon="1.69741">
        <ele>606.73</ele>
        <time>2017-02-25T15:17:04Z</time>
      </trkpt>
      <trkpt lat="42.78815" lon="1.69739">
        <ele>611.06</ele>
        <time>2017-02-25T15:17:36Z</time>
      </trkpt>
      <trkpt lat="42.78815" lon="1.69737">
        <ele>612.98</ele>
        <time>2017-02-25T15:18:04Z</time>
      </trkpt>
      <trkpt lat="42.78815" lon="1.69737">
        <ele>613.94</ele>
        <time>2017-02-25T15:18:30Z</time>
      </trkpt>
      <trkpt lat="42.78814" lon="1.69737">
        <ele>614.9</ele>
        <time>2017-02-25T15:18:57Z</time>
      </trkpt>
      <trkpt lat="42.78814" lon="1.69736">
        <ele>616.34</ele>
        <time>2017-02-25T15:19:23Z</time>
      </trkpt>
      <trkpt lat="42.78815" lon="1.69734">
        <ele>617.3</ele>
        <time>2017-02-25T15:19:51Z</time>
      </trkpt>
      <trkpt lat="42.78813" lon="1.69734">
        <ele>619.23</ele>
        <time>2017-02-25T15:20:14Z</time>
      </trkpt>
      <trkpt lat="42.78813" lon="1.69735">
        <ele>619.71</ele>
        <time>2017-02-25T15:20:39Z</time>
      </trkpt>
      <trkpt lat="42.78814" lon="1.69734">
        <ele>620.19</ele>
        <time>2017-02-25T15:21:01Z</time>
      </trkpt>
      <trkpt lat="42.78813" lon="1.69732">
        <ele>619.23</ele>
        <time>2017-02-25T15:21:27Z</time>
      </trkpt>
      <trkpt lat="42.78813" lon="1.69732">
        <ele>618.26</ele>
        <time>2017-02-25T15:21:47Z</time>
      </trkpt>
      <trkpt lat="42.78813" lon="1.69733">
        <ele>620.19</ele>
        <time>2017-02-25T15:22:21Z</time>
      </trkpt>
      <trkpt lat="42.78815" lon="1.69734">
        <ele>620.19</ele>
        <time>2017-02-25T15:22:43Z</time>
      </trkpt>
      <trkpt lat="42.78815" lon="1.69733">
        <ele>621.63</ele>
        <time>2017-02-25T15:23:15Z</time>
      </trkpt>
      <trkpt lat="42.78814" lon="1.69733">
        <ele>621.63</ele>
        <time>2017-02-25T15:23:32Z</time>
      </trkpt>
      <trkpt lat="42.78814" lon="1.69733">
        <ele>622.11</ele>
        <time>2017-02-25T15:24:07Z</time>
      </trkpt>
      <trkpt lat="42.78813" lon="1.69732">
        <ele>622.59</ele>
        <time>2017-02-25T15:24:50Z</time>
      </trkpt>
      <trkpt lat="42.78812" lon="1.69731">
        <ele>621.63</ele>
        <time>2017-02-25T15:25:23Z</time>
      </trkpt>
      <trkpt lat="42.78813" lon="1.69731">
        <ele>622.11</ele>
        <time>2017-02-25T15:26:01Z</time>
      </trkpt>
      <trkpt lat="42.78813" lon="1.69732">
        <ele>623.07</ele>
        <time>2017-02-25T15:26:31Z</time>
      </trkpt>
      <trkpt lat="42.78815" lon="1.69731">
        <ele>623.07</ele>
        <time>2017-02-25T15:27:00Z</time>
      </trkpt>
      <trkpt lat="42.78817" lon="1.69729">
        <ele>622.59</ele>
        <time>2017-02-25T15:27:30Z</time>
      </trkpt>
      <trkpt lat="42.78817" lon="1.69731">
        <ele>624.03</ele>
        <time>2017-02-25T15:28:07Z</time>
      </trkpt>
      <trkpt lat="42.78816" lon="1.69732">
        <ele>622.11</ele>
        <time>2017-02-25T15:28:35Z</time>
      </trkpt>
      <trkpt lat="42.78816" lon="1.69732">
        <ele>620.67</ele>
        <time>2017-02-25T15:29:01Z</time>
      </trkpt>
      <trkpt lat="42.78816" lon="1.69732">
        <ele>620.19</ele>
        <time>2017-02-25T15:29:34Z</time>
      </trkpt>
      <trkpt lat="42.78814" lon="1.69732">
        <ele>620.67</ele>
        <time>2017-02-25T15:30:10Z</time>
      </trkpt>
      <trkpt lat="42.78816" lon="1.69732">
        <ele>621.15</ele>
        <time>2017-02-25T15:30:39Z</time>
      </trkpt>
      <trkpt lat="42.78814" lon="1.69731">
        <ele>623.07</ele>
        <time>2017-02-25T15:31:15Z</time>
      </trkpt>
      <trkpt lat="42.78814" lon="1.69731">
        <ele>621.63</ele>
        <time>2017-02-25T15:31:53Z</time>
      </trkpt>
      <trkpt lat="42.78814" lon="1.6973">
        <ele>620.19</ele>
        <time>2017-02-25T15:32:24Z</time>
      </trkpt>
      <trkpt lat="42.78815" lon="1.6973">
        <ele>620.19</ele>
        <time>2017-02-25T15:32:47Z</time>
      </trkpt>
      <trkpt lat="42.78816" lon="1.69729">
        <ele>620.19</ele>
        <time>2017-02-25T15:33:18Z</time>
      </trkpt>
      <trkpt lat="42.78814" lon="1.6973">
        <ele>622.59</ele>
        <time>2017-02-25T15:33:52Z</time>
      </trkpt>
      <trkpt lat="42.78814" lon="1.69731">
        <ele>622.11</ele>
        <time>2017-02-25T15:34:13Z</time>
      </trkpt>
      <trkpt lat="42.78813" lon="1.69731">
        <ele>622.11</ele>
        <time>2017-02-25T15:34:40Z</time>
      </trkpt>
      <trkpt lat="42.78813" lon="1.69732">
        <ele>622.11</ele>
        <time>2017-02-25T15:35:06Z</time>
      </trkpt>
      <trkpt lat="42.78814" lon="1.69733">
        <ele>622.59</ele>
        <time>2017-02-25T15:35:26Z</time>
      </trkpt>
      <trkpt lat="42.78814" lon="1.69737">
        <ele>623.55</ele>
        <time>2017-02-25T15:35:45Z</time>
      </trkpt>
      <trkpt lat="42.78815" lon="1.69736">
        <ele>622.59</ele>
        <time>2017-02-25T15:36:03Z</time>
      </trkpt>
      <trkpt lat="42.78815" lon="1.69733">
        <ele>622.59</ele>
        <time>2017-02-25T15:36:27Z</time>
      </trkpt>
      <trkpt lat="42.78816" lon="1.69733">
        <ele>622.59</ele>
        <time>2017-02-25T15:36:53Z</time>
      </trkpt>
      <trkpt lat="42.78815" lon="1.69735">
        <ele>622.11</ele>
        <time>2017-02-25T15:37:31Z</time>
      </trkpt>
      <trkpt lat="42.78814" lon="1.69736">
        <ele>623.55</ele>
        <time>2017-02-25T15:37:55Z</time>
      </trkpt>
      <trkpt lat="42.78814" lon="1.69735">
        <ele>624.03</ele>
        <time>2017-02-25T15:38:22Z</time>
      </trkpt>
      <trkpt lat="42.78814" lon="1.69734">
        <ele>622.11</ele>
        <time>2017-02-25T15:38:54Z</time>
      </trkpt>
      <trkpt lat="42.78813" lon="1.69735">
        <ele>617.78</ele>
        <time>2017-02-25T15:39:31Z</time>
      </trkpt>
      <trkpt lat="42.78813" lon="1.69736">
        <ele>613.94</ele>
        <time>2017-02-25T15:40:07Z</time>
      </trkpt>
      <trkpt lat="42.78813" lon="1.69737">
        <ele>615.38</ele>
        <time>2017-02-25T15:40:29Z</time>
      </trkpt>
      <trkpt lat="42.78813" lon="1.69737">
        <ele>615.38</ele>
        <time>2017-02-25T15:40:51Z</time>
      </trkpt>
      <trkpt lat="42.78813" lon="1.69737">
        <ele>615.38</ele>
        <time>2017-02-25T15:41:03Z</time>
      </trkpt>
      <trkpt lat="42.78813" lon="1.69735">
        <ele>615.38</ele>
        <time>2017-02-25T15:41:30Z</time>
      </trkpt>
      <trkpt lat="42.78813" lon="1.69734">
        <ele>614.9</ele>
        <time>2017-02-25T15:41:53Z</time>
      </trkpt>
      <trkpt lat="42.78813" lon="1.69735">
        <ele>615.38</ele>
        <time>2017-02-25T15:42:10Z</time>
      </trkpt>
      <trkpt lat="42.78813" lon="1.69734">
        <ele>614.9</ele>
        <time>2017-02-25T15:42:34Z</time>
      </trkpt>
      <trkpt lat="42.78811" lon="1.69734">
        <ele>615.86</ele>
        <time>2017-02-25T15:42:54Z</time>
      </trkpt>
      <trkpt lat="42.7881" lon="1.69732">
        <ele>617.3</ele>
        <time>2017-02-25T15:43:31Z</time>
      </trkpt>
      <trkpt lat="42.78811" lon="1.69731">
        <ele>618.75</ele>
        <time>2017-02-25T15:44:01Z</time>
      </trkpt>
      <trkpt lat="42.78811" lon="1.69731">
        <ele>618.26</ele>
        <time>2017-02-25T15:44:23Z</time>
      </trkpt>
      <trkpt lat="42.78811" lon="1.69731">
        <ele>617.78</ele>
        <time>2017-02-25T15:44:44Z</time>
      </trkpt>
      <trkpt lat="42.78811" lon="1.69733">
        <ele>616.34</ele>
        <time>2017-02-25T15:45:17Z</time>
      </trkpt>
      <trkpt lat="42.78812" lon="1.69734">
        <ele>613.94</ele>
        <time>2017-02-25T15:45:48Z</time>
      </trkpt>
      <trkpt lat="42.78811" lon="1.69733">
        <ele>613.94</ele>
        <time>2017-02-25T15:46:07Z</time>
      </trkpt>
      <trkpt lat="42.78811" lon="1.69733">
        <ele>613.94</ele>
        <time>2017-02-25T15:46:38Z</time>
      </trkpt>
      <trkpt lat="42.78811" lon="1.69733">
        <ele>613.46</ele>
        <time>2017-02-25T15:47:06Z</time>
      </trkpt>
      <trkpt lat="42.7881" lon="1.69733">
        <ele>612.98</ele>
        <time>2017-02-25T15:47:32Z</time>
      </trkpt>
      <trkpt lat="42.78811" lon="1.69732">
        <ele>613.46</ele>
        <time>2017-02-25T15:48:05Z</time>
      </trkpt>
      <trkpt lat="42.78811" lon="1.69732">
        <ele>613.94</ele>
        <time>2017-02-25T15:48:39Z</time>
      </trkpt>
      <trkpt lat="42.7881" lon="1.69732">
        <ele>613.46</ele>
        <time>2017-02-25T15:49:07Z</time>
      </trkpt>
      <trkpt lat="42.7881" lon="1.6973">
        <ele>612.98</ele>
        <time>2017-02-25T15:49:25Z</time>
      </trkpt>
      <trkpt lat="42.78808" lon="1.69726">
        <ele>611.54</ele>
        <time>2017-02-25T15:49:44Z</time>
      </trkpt>
      <trkpt lat="42.78806" lon="1.69715">
        <ele>608.17</ele>
        <time>2017-02-25T15:49:58Z</time>
      </trkpt>
      <trkpt lat="42.78804" lon="1.69703">
        <ele>604.81</ele>
        <time>2017-02-25T15:50:14Z</time>
      </trkpt>
      <trkpt lat="42.788" lon="1.69689">
        <ele>600.96</ele>
        <time>2017-02-25T15:50:31Z</time>
      </trkpt>
      <trkpt lat="42.78795" lon="1.69679">
        <ele>599.04</ele>
        <time>2017-02-25T15:50:46Z</time>
      </trkpt>
      <trkpt lat="42.78788" lon="1.69661">
        <ele>597.6</ele>
        <time>2017-02-25T15:51:04Z</time>
      </trkpt>
      <trkpt lat="42.78781" lon="1.6965">
        <ele>595.67</ele>
        <time>2017-02-25T15:51:21Z</time>
      </trkpt>
      <trkpt lat="42.78773" lon="1.69638">
        <ele>593.27</ele>
        <time>2017-02-25T15:51:38Z</time>
      </trkpt>
      <trkpt lat="42.78767" lon="1.69627">
        <ele>590.87</ele>
        <time>2017-02-25T15:51:53Z</time>
      </trkpt>
      <trkpt lat="42.78761" lon="1.69613">
        <ele>588.46</ele>
        <time>2017-02-25T15:52:10Z</time>
      </trkpt>
      <trkpt lat="42.78755" lon="1.69605">
        <ele>587.02</ele>
        <time>2017-02-25T15:52:21Z</time>
      </trkpt>
      <trkpt lat="42.78745" lon="1.69594">
        <ele>584.62</ele>
        <time>2017-02-25T15:52:37Z</time>
      </trkpt>
      <trkpt lat="42.78733" lon="1.69581">
        <ele>585.58</ele>
        <time>2017-02-25T15:52:53Z</time>
      </trkpt>
      <trkpt lat="42.78726" lon="1.69567">
        <ele>583.66</ele>
        <time>2017-02-25T15:53:09Z</time>
      </trkpt>
      <trkpt lat="42.78722" lon="1.69563">
        <ele>582.7</ele>
        <time>2017-02-25T15:53:24Z</time>
      </trkpt>
      <trkpt lat="42.78715" lon="1.69568">
        <ele>580.77</ele>
        <time>2017-02-25T15:53:38Z</time>
      </trkpt>
      <trkpt lat="42.78703" lon="1.6958">
        <ele>577.89</ele>
        <time>2017-02-25T15:53:55Z</time>
      </trkpt>
      <trkpt lat="42.78694" lon="1.69589">
        <ele>574.53</ele>
        <time>2017-02-25T15:54:09Z</time>
      </trkpt>
      <trkpt lat="42.78685" lon="1.69598">
        <ele>575.01</ele>
        <time>2017-02-25T15:54:25Z</time>
      </trkpt>
      <trkpt lat="42.7868" lon="1.69603">
        <ele>573.08</ele>
        <time>2017-02-25T15:54:39Z</time>
      </trkpt>
      <trkpt lat="42.78667" lon="1.69616">
        <ele>569.72</ele>
        <time>2017-02-25T15:54:54Z</time>
      </trkpt>
      <trkpt lat="42.78656" lon="1.69628">
        <ele>567.32</ele>
        <time>2017-02-25T15:55:06Z</time>
      </trkpt>
      <trkpt lat="42.78646" lon="1.69638">
        <ele>566.35</ele>
        <time>2017-02-25T15:55:18Z</time>
      </trkpt>
      <trkpt lat="42.78634" lon="1.69648">
        <ele>564.43</ele>
        <time>2017-02-25T15:55:32Z</time>
      </trkpt>
      <trkpt lat="42.78623" lon="1.69656">
        <ele>564.43</ele>
        <time>2017-02-25T15:55:47Z</time>
      </trkpt>
      <trkpt lat="42.78621" lon="1.69654">
        <ele>565.39</ele>
        <time>2017-02-25T15:55:50Z</time>
      </trkpt>
      <trkpt lat="42.78606" lon="1.69649">
        <ele>568.76</ele>
        <time>2017-02-25T15:56:06Z</time>
      </trkpt>
      <trkpt lat="42.78602" lon="1.69646">
        <ele>572.6</ele>
        <time>2017-02-25T15:56:21Z</time>
      </trkpt>
      <trkpt lat="42.786" lon="1.69645">
        <ele>575.01</ele>
        <time>2017-02-25T15:56:35Z</time>
      </trkpt>
      <trkpt lat="42.78599" lon="1.69639">
        <ele>576.45</ele>
        <time>2017-02-25T15:56:47Z</time>
      </trkpt>
      <trkpt lat="42.78599" lon="1.69637">
        <ele>577.89</ele>
        <time>2017-02-25T15:57:01Z</time>
      </trkpt>
      <trkpt lat="42.78593" lon="1.69631">
        <ele>575.49</ele>
        <time>2017-02-25T15:57:15Z</time>
      </trkpt>
      <trkpt lat="42.78582" lon="1.69623">
        <ele>572.6</ele>
        <time>2017-02-25T15:57:32Z</time>
      </trkpt>
      <trkpt lat="42.78573" lon="1.69619">
        <ele>570.2</ele>
        <time>2017-02-25T15:57:47Z</time>
      </trkpt>
      <trkpt lat="42.78554" lon="1.69611">
        <ele>572.12</ele>
        <time>2017-02-25T15:58:05Z</time>
      </trkpt>
      <trkpt lat="42.78543" lon="1.69602">
        <ele>572.6</ele>
        <time>2017-02-25T15:58:20Z</time>
      </trkpt>
      <trkpt lat="42.78535" lon="1.69593">
        <ele>570.68</ele>
        <time>2017-02-25T15:58:34Z</time>
      </trkpt>
      <trkpt lat="42.78529" lon="1.6958">
        <ele>570.2</ele>
        <time>2017-02-25T15:58:52Z</time>
      </trkpt>
      <trkpt lat="42.7852" lon="1.69573">
        <ele>568.76</ele>
        <time>2017-02-25T15:59:09Z</time>
      </trkpt>
      <trkpt lat="42.78505" lon="1.69569">
        <ele>564.91</ele>
        <time>2017-02-25T15:59:28Z</time>
      </trkpt>
      <trkpt lat="42.78491" lon="1.69565">
        <ele>565.39</ele>
        <time>2017-02-25T15:59:44Z</time>
      </trkpt>
      <trkpt lat="42.78478" lon="1.69563">
        <ele>565.87</ele>
        <time>2017-02-25T16:00:00Z</time>
      </trkpt>
      <trkpt lat="42.7847" lon="1.69561">
        <ele>564.91</ele>
        <time>2017-02-25T16:00:14Z</time>
      </trkpt>
      <trkpt lat="42.78462" lon="1.69559">
        <ele>564.91</ele>
        <time>2017-02-25T16:00:28Z</time>
      </trkpt>
      <trkpt lat="42.78454" lon="1.69555">
        <ele>566.35</ele>
        <time>2017-02-25T16:00:47Z</time>
      </trkpt>
      <trkpt lat="42.78441" lon="1.69553">
        <ele>564.43</ele>
        <time>2017-02-25T16:01:02Z</time>
      </trkpt>
      <trkpt lat="42.78421" lon="1.69556">
        <ele>563.47</ele>
        <time>2017-02-25T16:01:18Z</time>
      </trkpt>
      <trkpt lat="42.78411" lon="1.69566">
        <ele>560.11</ele>
        <time>2017-02-25T16:01:33Z</time>
      </trkpt>
      <trkpt lat="42.78402" lon="1.69574">
        <ele>558.18</ele>
        <time>2017-02-25T16:01:48Z</time>
      </trkpt>
      <trkpt lat="42.78392" lon="1.69579">
        <ele>563.47</ele>
        <time>2017-02-25T16:02:03Z</time>
      </trkpt>
      <trkpt lat="42.78383" lon="1.69578">
        <ele>569.24</ele>
        <time>2017-02-25T16:02:16Z</time>
      </trkpt>
      <trkpt lat="42.78371" lon="1.69578">
        <ele>570.68</ele>
        <time>2017-02-25T16:02:32Z</time>
      </trkpt>
      <trkpt lat="42.78362" lon="1.69578">
        <ele>574.04</ele>
        <time>2017-02-25T16:02:46Z</time>
      </trkpt>
      <trkpt lat="42.7835" lon="1.69577">
        <ele>579.81</ele>
        <time>2017-02-25T16:03:02Z</time>
      </trkpt>
      <trkpt lat="42.78344" lon="1.69581">
        <ele>579.81</ele>
        <time>2017-02-25T16:03:15Z</time>
      </trkpt>
      <trkpt lat="42.78334" lon="1.69587">
        <ele>577.41</ele>
        <time>2017-02-25T16:03:31Z</time>
      </trkpt>
      <trkpt lat="42.78327" lon="1.6959">
        <ele>575.97</ele>
        <time>2017-02-25T16:03:44Z</time>
      </trkpt>
      <trkpt lat="42.78324" lon="1.6959">
        <ele>578.37</ele>
        <time>2017-02-25T16:04:01Z</time>
      </trkpt>
      <trkpt lat="42.78324" lon="1.6959">
        <ele>579.33</ele>
        <time>2017-02-25T16:04:19Z</time>
      </trkpt>
      <trkpt lat="42.78322" lon="1.6959">
        <ele>582.22</ele>
        <time>2017-02-25T16:04:38Z</time>
      </trkpt>
      <trkpt lat="42.7832" lon="1.69589">
        <ele>584.14</ele>
        <time>2017-02-25T16:05:06Z</time>
      </trkpt>
      <trkpt lat="42.78317" lon="1.69589">
        <ele>584.62</ele>
        <time>2017-02-25T16:05:26Z</time>
      </trkpt>
      <trkpt lat="42.78307" lon="1.69593">
        <ele>584.14</ele>
        <time>2017-02-25T16:05:41Z</time>
      </trkpt>
      <trkpt lat="42.78301" lon="1.69597">
        <ele>582.7</ele>
        <time>2017-02-25T16:05:55Z</time>
      </trkpt>
      <trkpt lat="42.78294" lon="1.69602">
        <ele>582.7</ele>
        <time>2017-02-25T16:06:08Z</time>
      </trkpt>
      <trkpt lat="42.78292" lon="1.69605">
        <ele>583.18</ele>
        <time>2017-02-25T16:06:21Z</time>
      </trkpt>
      <trkpt lat="42.7828" lon="1.69611">
        <ele>585.58</ele>
        <time>2017-02-25T16:06:32Z</time>
      </trkpt>
      <trkpt lat="42.78269" lon="1.69622">
        <ele>584.62</ele>
        <time>2017-02-25T16:06:46Z</time>
      </trkpt>
      <trkpt lat="42.78258" lon="1.69631">
        <ele>586.06</ele>
        <time>2017-02-25T16:06:59Z</time>
      </trkpt>
      <trkpt lat="42.78255" lon="1.69633">
        <ele>586.54</ele>
        <time>2017-02-25T16:07:04Z</time>
      </trkpt>
      <trkpt lat="42.78246" lon="1.69645">
        <ele>583.66</ele>
        <time>2017-02-25T16:07:19Z</time>
      </trkpt>
      <trkpt lat="42.78243" lon="1.6965">
        <ele>583.18</ele>
        <time>2017-02-25T16:07:23Z</time>
      </trkpt>
      <trkpt lat="42.78237" lon="1.6966">
        <ele>581.25</ele>
        <time>2017-02-25T16:07:34Z</time>
      </trkpt>
      <trkpt lat="42.78229" lon="1.69672">
        <ele>582.7</ele>
        <time>2017-02-25T16:07:48Z</time>
      </trkpt>
      <trkpt lat="42.78218" lon="1.69687">
        <ele>583.18</ele>
        <time>2017-02-25T16:08:02Z</time>
      </trkpt>
      <trkpt lat="42.78215" lon="1.69692">
        <ele>580.77</ele>
        <time>2017-02-25T16:08:16Z</time>
      </trkpt>
      <trkpt lat="42.78206" lon="1.69708">
        <ele>582.22</ele>
        <time>2017-02-25T16:08:31Z</time>
      </trkpt>
      <trkpt lat="42.78198" lon="1.69719">
        <ele>585.58</ele>
        <time>2017-02-25T16:08:45Z</time>
      </trkpt>
      <trkpt lat="42.78197" lon="1.69719">
        <ele>585.58</ele>
        <time>2017-02-25T16:08:48Z</time>
      </trkpt>
      <trkpt lat="42.78185" lon="1.69728">
        <ele>584.14</ele>
        <time>2017-02-25T16:09:03Z</time>
      </trkpt>
      <trkpt lat="42.78175" lon="1.69736">
        <ele>583.66</ele>
        <time>2017-02-25T16:09:17Z</time>
      </trkpt>
      <trkpt lat="42.78171" lon="1.69743">
        <ele>582.7</ele>
        <time>2017-02-25T16:09:24Z</time>
      </trkpt>
      <trkpt lat="42.78163" lon="1.69756">
        <ele>577.41</ele>
        <time>2017-02-25T16:09:38Z</time>
      </trkpt>
      <trkpt lat="42.78157" lon="1.69764">
        <ele>576.45</ele>
        <time>2017-02-25T16:09:51Z</time>
      </trkpt>
      <trkpt lat="42.78156" lon="1.69766">
        <ele>575.97</ele>
        <time>2017-02-25T16:09:53Z</time>
      </trkpt>
      <trkpt lat="42.78146" lon="1.69777">
        <ele>575.01</ele>
        <time>2017-02-25T16:10:07Z</time>
      </trkpt>
      <trkpt lat="42.78137" lon="1.69783">
        <ele>570.68</ele>
        <time>2017-02-25T16:10:21Z</time>
      </trkpt>
      <trkpt lat="42.78127" lon="1.69784">
        <ele>571.64</ele>
        <time>2017-02-25T16:10:39Z</time>
      </trkpt>
      <trkpt lat="42.78123" lon="1.69784">
        <ele>571.64</ele>
        <time>2017-02-25T16:10:56Z</time>
      </trkpt>
      <trkpt lat="42.78115" lon="1.69784">
        <ele>577.89</ele>
        <time>2017-02-25T16:11:13Z</time>
      </trkpt>
      <trkpt lat="42.78105" lon="1.69776">
        <ele>575.97</ele>
        <time>2017-02-25T16:11:26Z</time>
      </trkpt>
      <trkpt lat="42.78091" lon="1.69772">
        <ele>575.01</ele>
        <time>2017-02-25T16:11:42Z</time>
      </trkpt>
      <trkpt lat="42.78082" lon="1.69775">
        <ele>572.6</ele>
        <time>2017-02-25T16:11:57Z</time>
      </trkpt>
      <trkpt lat="42.78074" lon="1.69777">
        <ele>573.56</ele>
        <time>2017-02-25T16:12:14Z</time>
      </trkpt>
      <trkpt lat="42.78064" lon="1.69779">
        <ele>569.24</ele>
        <time>2017-02-25T16:12:27Z</time>
      </trkpt>
      <trkpt lat="42.78051" lon="1.69788">
        <ele>561.55</ele>
        <time>2017-02-25T16:12:44Z</time>
      </trkpt>
      <trkpt lat="42.78039" lon="1.69791">
        <ele>556.26</ele>
        <time>2017-02-25T16:13:00Z</time>
      </trkpt>
      <trkpt lat="42.78031" lon="1.69796">
        <ele>551.93</ele>
        <time>2017-02-25T16:13:12Z</time>
      </trkpt>
      <trkpt lat="42.78017" lon="1.69805">
        <ele>538.48</ele>
        <time>2017-02-25T16:13:29Z</time>
      </trkpt>
      <trkpt lat="42.78006" lon="1.69815">
        <ele>525.5</ele>
        <time>2017-02-25T16:13:45Z</time>
      </trkpt>
      <trkpt lat="42.77998" lon="1.69824">
        <ele>518.29</ele>
        <time>2017-02-25T16:13:59Z</time>
      </trkpt>
      <trkpt lat="42.77984" lon="1.69833">
        <ele>515.4</ele>
        <time>2017-02-25T16:14:13Z</time>
      </trkpt>
      <trkpt lat="42.77969" lon="1.69848">
        <ele>515.4</ele>
        <time>2017-02-25T16:14:31Z</time>
      </trkpt>
      <trkpt lat="42.77956" lon="1.69858">
        <ele>511.56</ele>
        <time>2017-02-25T16:14:46Z</time>
      </trkpt>
      <trkpt lat="42.77944" lon="1.69867">
        <ele>506.27</ele>
        <time>2017-02-25T16:15:01Z</time>
      </trkpt>
      <trkpt lat="42.77932" lon="1.69874">
        <ele>498.58</ele>
        <time>2017-02-25T16:15:17Z</time>
      </trkpt>
      <trkpt lat="42.77922" lon="1.69888">
        <ele>499.06</ele>
        <time>2017-02-25T16:15:30Z</time>
      </trkpt>
      <trkpt lat="42.77908" lon="1.69904">
        <ele>505.79</ele>
        <time>2017-02-25T16:15:46Z</time>
      </trkpt>
      <trkpt lat="42.77901" lon="1.69912">
        <ele>505.79</ele>
        <time>2017-02-25T16:15:57Z</time>
      </trkpt>
      <trkpt lat="42.77891" lon="1.69921">
        <ele>502.91</ele>
        <time>2017-02-25T16:16:10Z</time>
      </trkpt>
      <trkpt lat="42.7788" lon="1.69931">
        <ele>505.79</ele>
        <time>2017-02-25T16:16:24Z</time>
      </trkpt>
      <trkpt lat="42.7787" lon="1.69937">
        <ele>521.17</ele>
        <time>2017-02-25T16:16:37Z</time>
      </trkpt>
      <trkpt lat="42.77859" lon="1.69949">
        <ele>535.59</ele>
        <time>2017-02-25T16:16:50Z</time>
      </trkpt>
      <trkpt lat="42.77858" lon="1.69955">
        <ele>537.51</ele>
        <time>2017-02-25T16:17:09Z</time>
      </trkpt>
      <trkpt lat="42.77856" lon="1.69959">
        <ele>540.4</ele>
        <time>2017-02-25T16:17:29Z</time>
      </trkpt>
      <trkpt lat="42.77849" lon="1.69969">
        <ele>541.84</ele>
        <time>2017-02-25T16:17:42Z</time>
      </trkpt>
      <trkpt lat="42.77837" lon="1.69983">
        <ele>545.2</ele>
        <time>2017-02-25T16:17:57Z</time>
      </trkpt>
      <trkpt lat="42.7783" lon="1.69992">
        <ele>548.09</ele>
        <time>2017-02-25T16:18:09Z</time>
      </trkpt>
      <trkpt lat="42.77828" lon="1.69993">
        <ele>548.09</ele>
        <time>2017-02-25T16:18:11Z</time>
      </trkpt>
      <trkpt lat="42.77822" lon="1.69999">
        <ele>547.61</ele>
        <time>2017-02-25T16:18:24Z</time>
      </trkpt>
      <trkpt lat="42.77811" lon="1.70008">
        <ele>549.53</ele>
        <time>2017-02-25T16:18:40Z</time>
      </trkpt>
      <trkpt lat="42.7781" lon="1.70007">
        <ele>551.93</ele>
        <time>2017-02-25T16:18:57Z</time>
      </trkpt>
      <trkpt lat="42.77805" lon="1.70017">
        <ele>552.41</ele>
        <time>2017-02-25T16:19:09Z</time>
      </trkpt>
      <trkpt lat="42.77798" lon="1.70031">
        <ele>553.38</ele>
        <time>2017-02-25T16:19:23Z</time>
      </trkpt>
      <trkpt lat="42.77797" lon="1.70035">
        <ele>553.38</ele>
        <time>2017-02-25T16:19:38Z</time>
      </trkpt>
      <trkpt lat="42.77797" lon="1.70034">
        <ele>555.78</ele>
        <time>2017-02-25T16:20:04Z</time>
      </trkpt>
      <trkpt lat="42.77797" lon="1.70034">
        <ele>554.82</ele>
        <time>2017-02-25T16:20:32Z</time>
      </trkpt>
      <trkpt lat="42.77792" lon="1.70044">
        <ele>554.82</ele>
        <time>2017-02-25T16:20:54Z</time>
      </trkpt>
      <trkpt lat="42.77782" lon="1.70064">
        <ele>555.3</ele>
        <time>2017-02-25T16:21:09Z</time>
      </trkpt>
      <trkpt lat="42.77764" lon="1.70081">
        <ele>558.66</ele>
        <time>2017-02-25T16:21:26Z</time>
      </trkpt>
      <trkpt lat="42.77762" lon="1.70082">
        <ele>559.14</ele>
        <time>2017-02-25T16:21:28Z</time>
      </trkpt>
      <trkpt lat="42.77747" lon="1.70097">
        <ele>561.07</ele>
        <time>2017-02-25T16:21:45Z</time>
      </trkpt>
      <trkpt lat="42.77731" lon="1.70109">
        <ele>562.51</ele>
        <time>2017-02-25T16:22:01Z</time>
      </trkpt>
      <trkpt lat="42.77726" lon="1.70114">
        <ele>562.51</ele>
        <time>2017-02-25T16:22:19Z</time>
      </trkpt>
      <trkpt lat="42.77726" lon="1.70113">
        <ele>562.51</ele>
        <time>2017-02-25T16:22:41Z</time>
      </trkpt>
      <trkpt lat="42.77716" lon="1.70125">
        <ele>561.55</ele>
        <time>2017-02-25T16:22:58Z</time>
      </trkpt>
      <trkpt lat="42.77713" lon="1.7013">
        <ele>562.03</ele>
        <time>2017-02-25T16:23:02Z</time>
      </trkpt>
      <trkpt lat="42.77704" lon="1.7015">
        <ele>563.95</ele>
        <time>2017-02-25T16:23:18Z</time>
      </trkpt>
      <trkpt lat="42.77697" lon="1.7017">
        <ele>563.95</ele>
        <time>2017-02-25T16:23:34Z</time>
      </trkpt>
      <trkpt lat="42.77695" lon="1.70173">
        <ele>564.43</ele>
        <time>2017-02-25T16:23:36Z</time>
      </trkpt>
      <trkpt lat="42.7769" lon="1.70192">
        <ele>563.47</ele>
        <time>2017-02-25T16:23:53Z</time>
      </trkpt>
      <trkpt lat="42.77686" lon="1.70213">
        <ele>561.07</ele>
        <time>2017-02-25T16:24:08Z</time>
      </trkpt>
      <trkpt lat="42.77684" lon="1.70224">
        <ele>560.11</ele>
        <time>2017-02-25T16:24:19Z</time>
      </trkpt>
      <trkpt lat="42.7768" lon="1.70243">
        <ele>558.66</ele>
        <time>2017-02-25T16:24:36Z</time>
      </trkpt>
      <trkpt lat="42.77677" lon="1.70261">
        <ele>557.22</ele>
        <time>2017-02-25T16:24:52Z</time>
      </trkpt>
      <trkpt lat="42.77673" lon="1.70278">
        <ele>556.26</ele>
        <time>2017-02-25T16:25:07Z</time>
      </trkpt>
      <trkpt lat="42.77663" lon="1.70282">
        <ele>554.34</ele>
        <time>2017-02-25T16:25:22Z</time>
      </trkpt>
      <trkpt lat="42.77652" lon="1.70277">
        <ele>550.97</ele>
        <time>2017-02-25T16:25:35Z</time>
      </trkpt>
      <trkpt lat="42.77633" lon="1.70275">
        <ele>550.49</ele>
        <time>2017-02-25T16:25:52Z</time>
      </trkpt>
      <trkpt lat="42.77627" lon="1.70276">
        <ele>550.49</ele>
        <time>2017-02-25T16:25:58Z</time>
      </trkpt>
      <trkpt lat="42.77621" lon="1.70283">
        <ele>552.9</ele>
        <time>2017-02-25T16:26:14Z</time>
      </trkpt>
      <trkpt lat="42.7762" lon="1.70283">
        <ele>553.38</ele>
        <time>2017-02-25T16:26:35Z</time>
      </trkpt>
      <trkpt lat="42.77614" lon="1.70284">
        <ele>552.41</ele>
        <time>2017-02-25T16:26:46Z</time>
      </trkpt>
      <trkpt lat="42.77614" lon="1.70283">
        <ele>553.38</ele>
        <time>2017-02-25T16:27:04Z</time>
      </trkpt>
      <trkpt lat="42.77615" lon="1.70282">
        <ele>553.86</ele>
        <time>2017-02-25T16:27:29Z</time>
      </trkpt>
      <trkpt lat="42.77614" lon="1.70282">
        <ele>554.34</ele>
        <time>2017-02-25T16:27:59Z</time>
      </trkpt>
      <trkpt lat="42.77614" lon="1.70282">
        <ele>553.86</ele>
        <time>2017-02-25T16:28:25Z</time>
      </trkpt>
      <trkpt lat="42.77613" lon="1.70282">
        <ele>554.82</ele>
        <time>2017-02-25T16:28:48Z</time>
      </trkpt>
      <trkpt lat="42.77612" lon="1.70287">
        <ele>555.3</ele>
        <time>2017-02-25T16:28:58Z</time>
      </trkpt>
      <trkpt lat="42.77615" lon="1.70296">
        <ele>554.82</ele>
        <time>2017-02-25T16:29:13Z</time>
      </trkpt>
      <trkpt lat="42.77613" lon="1.70303">
        <ele>553.38</ele>
        <time>2017-02-25T16:29:21Z</time>
      </trkpt>
      <trkpt lat="42.77613" lon="1.70311">
        <ele>551.45</ele>
        <time>2017-02-25T16:29:35Z</time>
      </trkpt>
      <trkpt lat="42.77609" lon="1.70319">
        <ele>550.01</ele>
        <time>2017-02-25T16:29:42Z</time>
      </trkpt>
      <trkpt lat="42.776" lon="1.70318">
        <ele>547.61</ele>
        <time>2017-02-25T16:30:01Z</time>
      </trkpt>
      <trkpt lat="42.77599" lon="1.70319">
        <ele>547.61</ele>
        <time>2017-02-25T16:30:19Z</time>
      </trkpt>
      <trkpt lat="42.77599" lon="1.7032">
        <ele>548.57</ele>
        <time>2017-02-25T16:30:38Z</time>
      </trkpt>
      <trkpt lat="42.77598" lon="1.70321">
        <ele>548.57</ele>
        <time>2017-02-25T16:30:57Z</time>
      </trkpt>
      <trkpt lat="42.77598" lon="1.70326">
        <ele>548.57</ele>
        <time>2017-02-25T16:31:08Z</time>
      </trkpt>
      <trkpt lat="42.77597" lon="1.70331">
        <ele>547.61</ele>
        <time>2017-02-25T16:31:22Z</time>
      </trkpt>
      <trkpt lat="42.77589" lon="1.70352">
        <ele>547.13</ele>
        <time>2017-02-25T16:31:38Z</time>
      </trkpt>
      <trkpt lat="42.77584" lon="1.70362">
        <ele>547.61</ele>
        <time>2017-02-25T16:31:46Z</time>
      </trkpt>
      <trkpt lat="42.77574" lon="1.70381">
        <ele>547.61</ele>
        <time>2017-02-25T16:32:03Z</time>
      </trkpt>
      <trkpt lat="42.77565" lon="1.70399">
        <ele>546.17</ele>
        <time>2017-02-25T16:32:19Z</time>
      </trkpt>
      <trkpt lat="42.77555" lon="1.70416">
        <ele>546.65</ele>
        <time>2017-02-25T16:32:35Z</time>
      </trkpt>
      <trkpt lat="42.77543" lon="1.70435">
        <ele>548.09</ele>
        <time>2017-02-25T16:32:53Z</time>
      </trkpt>
      <trkpt lat="42.77541" lon="1.70437">
        <ele>548.09</ele>
        <time>2017-02-25T16:32:55Z</time>
      </trkpt>
      <trkpt lat="42.7754" lon="1.70441">
        <ele>548.57</ele>
        <time>2017-02-25T16:32:58Z</time>
      </trkpt>
      <trkpt lat="42.77535" lon="1.70448">
        <ele>549.05</ele>
        <time>2017-02-25T16:33:04Z</time>
      </trkpt>
      <trkpt lat="42.77524" lon="1.70466">
        <ele>549.05</ele>
        <time>2017-02-25T16:33:20Z</time>
      </trkpt>
      <trkpt lat="42.77513" lon="1.70483">
        <ele>549.53</ele>
        <time>2017-02-25T16:33:36Z</time>
      </trkpt>
      <trkpt lat="42.77503" lon="1.70501">
        <ele>550.01</ele>
        <time>2017-02-25T16:33:53Z</time>
      </trkpt>
      <trkpt lat="42.77491" lon="1.7052">
        <ele>550.01</ele>
        <time>2017-02-25T16:34:11Z</time>
      </trkpt>
      <trkpt lat="42.77479" lon="1.70537">
        <ele>550.01</ele>
        <time>2017-02-25T16:34:29Z</time>
      </trkpt>
      <trkpt lat="42.77471" lon="1.70554">
        <ele>550.01</ele>
        <time>2017-02-25T16:34:45Z</time>
      </trkpt>
      <trkpt lat="42.77464" lon="1.70573">
        <ele>550.01</ele>
        <time>2017-02-25T16:35:01Z</time>
      </trkpt>
      <trkpt lat="42.77461" lon="1.7058">
        <ele>550.01</ele>
        <time>2017-02-25T16:35:07Z</time>
      </trkpt>
      <trkpt lat="42.77457" lon="1.70597">
        <ele>550.01</ele>
        <time>2017-02-25T16:35:21Z</time>
      </trkpt>
      <trkpt lat="42.77457" lon="1.706">
        <ele>549.53</ele>
        <time>2017-02-25T16:35:23Z</time>
      </trkpt>
      <trkpt lat="42.77453" lon="1.70616">
        <ele>548.57</ele>
        <time>2017-02-25T16:35:35Z</time>
      </trkpt>
      <trkpt lat="42.7745" lon="1.70625">
        <ele>549.05</ele>
        <time>2017-02-25T16:35:42Z</time>
      </trkpt>
      <trkpt lat="42.77444" lon="1.70641">
        <ele>549.05</ele>
        <time>2017-02-25T16:35:57Z</time>
      </trkpt>
      <trkpt lat="42.7744" lon="1.7066">
        <ele>548.09</ele>
        <time>2017-02-25T16:36:12Z</time>
      </trkpt>
      <trkpt lat="42.77436" lon="1.70683">
        <ele>546.17</ele>
        <time>2017-02-25T16:36:29Z</time>
      </trkpt>
      <trkpt lat="42.77435" lon="1.70704">
        <ele>546.65</ele>
        <time>2017-02-25T16:36:44Z</time>
      </trkpt>
      <trkpt lat="42.77432" lon="1.7072">
        <ele>546.65</ele>
        <time>2017-02-25T16:36:57Z</time>
      </trkpt>
      <trkpt lat="42.77431" lon="1.70735">
        <ele>543.76</ele>
        <time>2017-02-25T16:37:09Z</time>
      </trkpt>
      <trkpt lat="42.77434" lon="1.70757">
        <ele>543.28</ele>
        <time>2017-02-25T16:37:24Z</time>
      </trkpt>
      <trkpt lat="42.77434" lon="1.70775">
        <ele>543.76</ele>
        <time>2017-02-25T16:37:38Z</time>
      </trkpt>
      <trkpt lat="42.77433" lon="1.708">
        <ele>546.17</ele>
        <time>2017-02-25T16:37:54Z</time>
      </trkpt>
      <trkpt lat="42.77431" lon="1.70812">
        <ele>547.13</ele>
        <time>2017-02-25T16:38:03Z</time>
      </trkpt>
      <trkpt lat="42.77431" lon="1.70816">
        <ele>547.13</ele>
        <time>2017-02-25T16:38:06Z</time>
      </trkpt>
      <trkpt lat="42.7743" lon="1.7082">
        <ele>547.13</ele>
        <time>2017-02-25T16:38:09Z</time>
      </trkpt>
      <trkpt lat="42.7743" lon="1.70838">
        <ele>548.57</ele>
        <time>2017-02-25T16:38:22Z</time>
      </trkpt>
      <trkpt lat="42.77427" lon="1.70854">
        <ele>549.05</ele>
        <time>2017-02-25T16:38:36Z</time>
      </trkpt>
      <trkpt lat="42.77425" lon="1.70867">
        <ele>549.53</ele>
        <time>2017-02-25T16:38:47Z</time>
      </trkpt>
      <trkpt lat="42.77422" lon="1.7088">
        <ele>552.9</ele>
        <time>2017-02-25T16:38:59Z</time>
      </trkpt>
      <trkpt lat="42.77422" lon="1.70884">
        <ele>553.38</ele>
        <time>2017-02-25T16:39:03Z</time>
      </trkpt>
      <trkpt lat="42.77427" lon="1.70893">
        <ele>554.82</ele>
        <time>2017-02-25T16:39:11Z</time>
      </trkpt>
      <trkpt lat="42.77436" lon="1.70904">
        <ele>556.26</ele>
        <time>2017-02-25T16:39:24Z</time>
      </trkpt>
      <trkpt lat="42.7744" lon="1.70917">
        <ele>555.78</ele>
        <time>2017-02-25T16:39:35Z</time>
      </trkpt>
      <trkpt lat="42.77438" lon="1.70935">
        <ele>556.26</ele>
        <time>2017-02-25T16:39:49Z</time>
      </trkpt>
      <trkpt lat="42.77438" lon="1.70955">
        <ele>558.18</ele>
        <time>2017-02-25T16:40:04Z</time>
      </trkpt>
      <trkpt lat="42.7744" lon="1.70963">
        <ele>559.62</ele>
        <time>2017-02-25T16:40:09Z</time>
      </trkpt>
      <trkpt lat="42.7744" lon="1.70985">
        <ele>560.11</ele>
        <time>2017-02-25T16:40:25Z</time>
      </trkpt>
      <trkpt lat="42.7744" lon="1.71004">
        <ele>559.14</ele>
        <time>2017-02-25T16:40:38Z</time>
      </trkpt>
      <trkpt lat="42.77441" lon="1.71027">
        <ele>561.07</ele>
        <time>2017-02-25T16:40:55Z</time>
      </trkpt>
      <trkpt lat="42.77444" lon="1.71048">
        <ele>561.55</ele>
        <time>2017-02-25T16:41:11Z</time>
      </trkpt>
      <trkpt lat="42.77449" lon="1.71066">
        <ele>560.11</ele>
        <time>2017-02-25T16:41:25Z</time>
      </trkpt>
      <trkpt lat="42.77457" lon="1.71085">
        <ele>560.59</ele>
        <time>2017-02-25T16:41:41Z</time>
      </trkpt>
      <trkpt lat="42.77458" lon="1.71105">
        <ele>560.11</ele>
        <time>2017-02-25T16:41:55Z</time>
      </trkpt>
      <trkpt lat="42.77456" lon="1.71124">
        <ele>560.59</ele>
        <time>2017-02-25T16:42:08Z</time>
      </trkpt>
      <trkpt lat="42.77454" lon="1.71143">
        <ele>561.07</ele>
        <time>2017-02-25T16:42:21Z</time>
      </trkpt>
      <trkpt lat="42.77452" lon="1.71164">
        <ele>561.07</ele>
        <time>2017-02-25T16:42:35Z</time>
      </trkpt>
      <trkpt lat="42.77451" lon="1.7118">
        <ele>562.51</ele>
        <time>2017-02-25T16:42:47Z</time>
      </trkpt>
      <trkpt lat="42.77451" lon="1.71188">
        <ele>562.99</ele>
        <time>2017-02-25T16:42:52Z</time>
      </trkpt>
      <trkpt lat="42.77456" lon="1.71212">
        <ele>564.43</ele>
        <time>2017-02-25T16:43:10Z</time>
      </trkpt>
      <trkpt lat="42.77459" lon="1.71228">
        <ele>565.39</ele>
        <time>2017-02-25T16:43:23Z</time>
      </trkpt>
      <trkpt lat="42.77463" lon="1.71243">
        <ele>568.76</ele>
        <time>2017-02-25T16:43:36Z</time>
      </trkpt>
      <trkpt lat="42.77466" lon="1.71255">
        <ele>570.2</ele>
        <time>2017-02-25T16:43:46Z</time>
      </trkpt>
      <trkpt lat="42.77471" lon="1.71273">
        <ele>570.68</ele>
        <time>2017-02-25T16:44:00Z</time>
      </trkpt>
      <trkpt lat="42.77472" lon="1.71291">
        <ele>571.64</ele>
        <time>2017-02-25T16:44:13Z</time>
      </trkpt>
      <trkpt lat="42.77468" lon="1.71306">
        <ele>570.68</ele>
        <time>2017-02-25T16:44:26Z</time>
      </trkpt>
      <trkpt lat="42.77467" lon="1.71321">
        <ele>571.16</ele>
        <time>2017-02-25T16:44:37Z</time>
      </trkpt>
      <trkpt lat="42.77469" lon="1.71342">
        <ele>572.12</ele>
        <time>2017-02-25T16:44:53Z</time>
      </trkpt>
      <trkpt lat="42.77471" lon="1.71349">
        <ele>572.12</ele>
        <time>2017-02-25T16:44:58Z</time>
      </trkpt>
      <trkpt lat="42.77475" lon="1.71367">
        <ele>573.08</ele>
        <time>2017-02-25T16:45:12Z</time>
      </trkpt>
      <trkpt lat="42.77477" lon="1.71371">
        <ele>574.04</ele>
        <time>2017-02-25T16:45:15Z</time>
      </trkpt>
      <trkpt lat="42.77477" lon="1.71374">
        <ele>574.53</ele>
        <time>2017-02-25T16:45:17Z</time>
      </trkpt>
      <trkpt lat="42.77479" lon="1.71385">
        <ele>575.97</ele>
        <time>2017-02-25T16:45:25Z</time>
      </trkpt>
      <trkpt lat="42.7748" lon="1.71399">
        <ele>576.45</ele>
        <time>2017-02-25T16:45:38Z</time>
      </trkpt>
      <trkpt lat="42.7748" lon="1.71402">
        <ele>576.93</ele>
        <time>2017-02-25T16:45:40Z</time>
      </trkpt>
      <trkpt lat="42.77478" lon="1.71414">
        <ele>577.89</ele>
        <time>2017-02-25T16:45:49Z</time>
      </trkpt>
      <trkpt lat="42.77479" lon="1.71417">
        <ele>578.37</ele>
        <time>2017-02-25T16:45:51Z</time>
      </trkpt>
      <trkpt lat="42.7748" lon="1.7144">
        <ele>580.29</ele>
        <time>2017-02-25T16:46:07Z</time>
      </trkpt>
      <trkpt lat="42.7748" lon="1.71455">
        <ele>581.73</ele>
        <time>2017-02-25T16:46:19Z</time>
      </trkpt>
      <trkpt lat="42.7748" lon="1.71472">
        <ele>583.18</ele>
        <time>2017-02-25T16:46:32Z</time>
      </trkpt>
      <trkpt lat="42.7748" lon="1.71488">
        <ele>584.14</ele>
        <time>2017-02-25T16:46:44Z</time>
      </trkpt>
      <trkpt lat="42.77481" lon="1.71504">
        <ele>586.54</ele>
        <time>2017-02-25T16:46:57Z</time>
      </trkpt>
      <trkpt lat="42.77485" lon="1.71519">
        <ele>589.43</ele>
        <time>2017-02-25T16:47:09Z</time>
      </trkpt>
      <trkpt lat="42.77488" lon="1.71538">
        <ele>591.35</ele>
        <time>2017-02-25T16:47:25Z</time>
      </trkpt>
      <trkpt lat="42.77489" lon="1.7154">
        <ele>591.35</ele>
        <time>2017-02-25T16:47:27Z</time>
      </trkpt>
      <trkpt lat="42.7749" lon="1.71557">
        <ele>592.79</ele>
        <time>2017-02-25T16:47:43Z</time>
      </trkpt>
      <trkpt lat="42.77489" lon="1.71572">
        <ele>593.75</ele>
        <time>2017-02-25T16:47:55Z</time>
      </trkpt>
      <trkpt lat="42.77488" lon="1.71587">
        <ele>592.31</ele>
        <time>2017-02-25T16:48:08Z</time>
      </trkpt>
      <trkpt lat="42.77486" lon="1.71604">
        <ele>591.35</ele>
        <time>2017-02-25T16:48:21Z</time>
      </trkpt>
      <trkpt lat="42.77482" lon="1.71622">
        <ele>591.83</ele>
        <time>2017-02-25T16:48:36Z</time>
      </trkpt>
      <trkpt lat="42.7748" lon="1.71633">
        <ele>590.39</ele>
        <time>2017-02-25T16:48:46Z</time>
      </trkpt>
      <trkpt lat="42.77478" lon="1.71654">
        <ele>591.83</ele>
        <time>2017-02-25T16:49:00Z</time>
      </trkpt>
      <trkpt lat="42.77477" lon="1.71668">
        <ele>592.31</ele>
        <time>2017-02-25T16:49:11Z</time>
      </trkpt>
      <trkpt lat="42.77475" lon="1.71687">
        <ele>595.19</ele>
        <time>2017-02-25T16:49:25Z</time>
      </trkpt>
      <trkpt lat="42.77473" lon="1.71698">
        <ele>596.64</ele>
        <time>2017-02-25T16:49:33Z</time>
      </trkpt>
      <trkpt lat="42.77472" lon="1.71714">
        <ele>598.08</ele>
        <time>2017-02-25T16:49:43Z</time>
      </trkpt>
      <trkpt lat="42.77473" lon="1.71723">
        <ele>597.12</ele>
        <time>2017-02-25T16:49:49Z</time>
      </trkpt>
      <trkpt lat="42.77473" lon="1.7173">
        <ele>597.6</ele>
        <time>2017-02-25T16:49:54Z</time>
      </trkpt>
      <trkpt lat="42.77471" lon="1.7175">
        <ele>597.12</ele>
        <time>2017-02-25T16:50:08Z</time>
      </trkpt>
      <trkpt lat="42.77469" lon="1.71771">
        <ele>598.08</ele>
        <time>2017-02-25T16:50:22Z</time>
      </trkpt>
      <trkpt lat="42.7747" lon="1.7177">
        <ele>597.12</ele>
        <time>2017-02-25T16:50:36Z</time>
      </trkpt>
      <trkpt lat="42.77468" lon="1.7177">
        <ele>596.64</ele>
        <time>2017-02-25T16:50:53Z</time>
      </trkpt>
      <trkpt lat="42.7747" lon="1.71769">
        <ele>596.64</ele>
        <time>2017-02-25T16:51:06Z</time>
      </trkpt>
      <trkpt lat="42.77471" lon="1.71769">
        <ele>596.64</ele>
        <time>2017-02-25T16:51:28Z</time>
      </trkpt>
      <trkpt lat="42.77471" lon="1.7177">
        <ele>596.64</ele>
        <time>2017-02-25T16:51:50Z</time>
      </trkpt>
      <trkpt lat="42.77471" lon="1.7177">
        <ele>597.12</ele>
        <time>2017-02-25T16:52:10Z</time>
      </trkpt>
      <trkpt lat="42.77471" lon="1.71771">
        <ele>597.6</ele>
        <time>2017-02-25T16:52:39Z</time>
      </trkpt>
      <trkpt lat="42.7747" lon="1.71771">
        <ele>597.6</ele>
        <time>2017-02-25T16:52:54Z</time>
      </trkpt>
      <trkpt lat="42.77472" lon="1.71782">
        <ele>597.6</ele>
        <time>2017-02-25T16:53:17Z</time>
      </trkpt>
      <trkpt lat="42.77474" lon="1.71786">
        <ele>597.6</ele>
        <time>2017-02-25T16:53:20Z</time>
      </trkpt>
      <trkpt lat="42.77479" lon="1.71796">
        <ele>596.64</ele>
        <time>2017-02-25T16:53:28Z</time>
      </trkpt>
      <trkpt lat="42.77479" lon="1.71798">
        <ele>596.64</ele>
        <time>2017-02-25T16:53:30Z</time>
      </trkpt>
      <trkpt lat="42.77485" lon="1.71818">
        <ele>597.12</ele>
        <time>2017-02-25T16:53:43Z</time>
      </trkpt>
      <trkpt lat="42.77487" lon="1.71825">
        <ele>597.12</ele>
        <time>2017-02-25T16:53:48Z</time>
      </trkpt>
      <trkpt lat="42.77487" lon="1.71828">
        <ele>597.12</ele>
        <time>2017-02-25T16:53:50Z</time>
      </trkpt>
      <trkpt lat="42.77489" lon="1.7185">
        <ele>595.67</ele>
        <time>2017-02-25T16:54:07Z</time>
      </trkpt>
      <trkpt lat="42.7749" lon="1.71852">
        <ele>595.67</ele>
        <time>2017-02-25T16:54:09Z</time>
      </trkpt>
      <trkpt lat="42.77492" lon="1.71858">
        <ele>595.19</ele>
        <time>2017-02-25T16:54:13Z</time>
      </trkpt>
      <trkpt lat="42.77496" lon="1.71874">
        <ele>596.64</ele>
        <time>2017-02-25T16:54:25Z</time>
      </trkpt>
      <trkpt lat="42.77497" lon="1.71876">
        <ele>596.64</ele>
        <time>2017-02-25T16:54:27Z</time>
      </trkpt>
      <trkpt lat="42.77498" lon="1.71889">
        <ele>598.56</ele>
        <time>2017-02-25T16:54:35Z</time>
      </trkpt>
      <trkpt lat="42.77496" lon="1.71904">
        <ele>599.04</ele>
        <time>2017-02-25T16:54:45Z</time>
      </trkpt>
      <trkpt lat="42.77493" lon="1.71929">
        <ele>598.56</ele>
        <time>2017-02-25T16:55:03Z</time>
      </trkpt>
      <trkpt lat="42.77491" lon="1.71946">
        <ele>597.6</ele>
        <time>2017-02-25T16:55:17Z</time>
      </trkpt>
      <trkpt lat="42.77491" lon="1.71971">
        <ele>598.08</ele>
        <time>2017-02-25T16:55:32Z</time>
      </trkpt>
      <trkpt lat="42.77491" lon="1.72003">
        <ele>598.56</ele>
        <time>2017-02-25T16:55:51Z</time>
      </trkpt>
      <trkpt lat="42.77489" lon="1.72028">
        <ele>599.52</ele>
        <time>2017-02-25T16:56:07Z</time>
      </trkpt>
      <trkpt lat="42.77486" lon="1.72056">
        <ele>599.04</ele>
        <time>2017-02-25T16:56:26Z</time>
      </trkpt>
      <trkpt lat="42.77485" lon="1.7208">
        <ele>599.04</ele>
        <time>2017-02-25T16:56:42Z</time>
      </trkpt>
      <trkpt lat="42.77485" lon="1.72092">
        <ele>598.56</ele>
        <time>2017-02-25T16:56:49Z</time>
      </trkpt>
      <trkpt lat="42.77483" lon="1.72118">
        <ele>598.08</ele>
        <time>2017-02-25T16:57:06Z</time>
      </trkpt>
      <trkpt lat="42.77484" lon="1.72137">
        <ele>597.6</ele>
        <time>2017-02-25T16:57:20Z</time>
      </trkpt>
      <trkpt lat="42.77488" lon="1.72161">
        <ele>597.12</ele>
        <time>2017-02-25T16:57:37Z</time>
      </trkpt>
      <trkpt lat="42.77488" lon="1.72161">
        <ele>597.6</ele>
        <time>2017-02-25T16:57:41Z</time>
      </trkpt>
      <trkpt lat="42.77489" lon="1.72164">
        <ele>597.6</ele>
        <time>2017-02-25T16:57:56Z</time>
      </trkpt>
      <trkpt lat="42.77489" lon="1.72164">
        <ele>598.56</ele>
        <time>2017-02-25T16:58:21Z</time>
      </trkpt>
      <trkpt lat="42.77488" lon="1.72163">
        <ele>598.56</ele>
        <time>2017-02-25T16:58:42Z</time>
      </trkpt>
      <trkpt lat="42.77489" lon="1.72161">
        <ele>598.56</ele>
        <time>2017-02-25T16:59:10Z</time>
      </trkpt>
      <trkpt lat="42.7749" lon="1.72162">
        <ele>600</ele>
        <time>2017-02-25T16:59:26Z</time>
      </trkpt>
      <trkpt lat="42.77488" lon="1.72161">
        <ele>601.92</ele>
        <time>2017-02-25T16:59:40Z</time>
      </trkpt>
      <trkpt lat="42.77486" lon="1.7216">
        <ele>601.44</ele>
        <time>2017-02-25T17:00:00Z</time>
      </trkpt>
      <trkpt lat="42.77488" lon="1.72153">
        <ele>603.36</ele>
        <time>2017-02-25T17:00:11Z</time>
      </trkpt>
      <trkpt lat="42.7749" lon="1.7214">
        <ele>602.88</ele>
        <time>2017-02-25T17:00:23Z</time>
      </trkpt>
      <trkpt lat="42.77499" lon="1.72132">
        <ele>601.44</ele>
        <time>2017-02-25T17:00:37Z</time>
      </trkpt>
      <trkpt lat="42.77508" lon="1.72137">
        <ele>601.44</ele>
        <time>2017-02-25T17:00:53Z</time>
      </trkpt>
      <trkpt lat="42.77512" lon="1.72135">
        <ele>600.96</ele>
        <time>2017-02-25T17:00:58Z</time>
      </trkpt>
      <trkpt lat="42.77519" lon="1.72133">
        <ele>601.44</ele>
        <time>2017-02-25T17:01:09Z</time>
      </trkpt>
      <trkpt lat="42.77522" lon="1.72127">
        <ele>602.4</ele>
        <time>2017-02-25T17:01:19Z</time>
      </trkpt>
      <trkpt lat="42.77523" lon="1.72124">
        <ele>602.88</ele>
        <time>2017-02-25T17:01:22Z</time>
      </trkpt>
      <trkpt lat="42.77527" lon="1.72117">
        <ele>604.81</ele>
        <time>2017-02-25T17:01:29Z</time>
      </trkpt>
      <trkpt lat="42.77537" lon="1.72105">
        <ele>607.21</ele>
        <time>2017-02-25T17:01:43Z</time>
      </trkpt>
      <trkpt lat="42.77537" lon="1.72104">
        <ele>607.21</ele>
        <time>2017-02-25T17:01:44Z</time>
      </trkpt>
      <trkpt lat="42.77545" lon="1.72107">
        <ele>607.21</ele>
        <time>2017-02-25T17:01:56Z</time>
      </trkpt>
    </trkseg>
  </trk>
</gpx>